Time,TemperatureF,DewpointF,PressureIn,WindDirection,WindDirectionDegrees,WindSpeedMPH,WindSpeedGustMPH,Humidity,HourlyPrecipIn,Conditions,Clouds,dailyrainin,SoftwareType,DateUTC
2013-12-14 00:01:00,46.3,26.1,30.14,WNW,300,2.0,3.0,45,0.00,,,0.00,Wunderground v.1.15,2013-12-14 05:01:00,
2013-12-14 00:07:00,45.3,28.7,30.14,SW,224,3.0,4.0,52,0.00,,,0.00,Wunderground v.1.15,2013-12-14 05:07:00,
2013-12-14 00:09:00,44.9,28.8,30.14,SW,225,2.0,4.0,53,0.00,,,0.00,Wunderground v.1.15,2013-12-14 05:09:00,
2013-12-14 00:13:00,44.1,28.5,30.14,SW,225,2.0,3.0,54,0.00,,,0.00,Wunderground v.1.15,2013-12-14 05:13:00,
2013-12-14 00:15:00,43.8,30.0,30.15,SW,225,1.0,3.0,58,0.00,,,0.00,Wunderground v.1.15,2013-12-14 05:15:00,
2013-12-14 00:16:00,43.6,30.2,30.15,SW,225,2.0,3.0,59,0.00,,,0.00,Wunderground v.1.15,2013-12-14 05:16:00,
2013-12-14 00:17:00,43.5,29.7,30.15,SW,225,3.0,3.0,58,0.00,,,0.00,Wunderground v.1.15,2013-12-14 05:17:00,
2013-12-14 00:19:00,43.1,29.3,30.15,SW,214,0.0,3.0,58,0.00,,,0.00,Wunderground v.1.15,2013-12-14 05:19:00,
2013-12-14 00:22:00,42.8,29.0,30.15,SW,214,2.0,4.0,58,0.00,,,0.00,Wunderground v.1.15,2013-12-14 05:22:00,
2013-12-14 00:23:00,42.7,28.9,30.15,SW,214,1.0,4.0,58,0.00,,,0.00,Wunderground v.1.15,2013-12-14 05:23:00,
2013-12-14 00:26:00,42.4,29.1,30.15,South,180,3.0,4.0,59,0.00,,,0.00,Wunderground v.1.15,2013-12-14 05:26:00,
2013-12-14 00:28:00,42.2,29.3,30.16,SSW,207,5.0,5.0,60,0.00,,,0.00,Wunderground v.1.15,2013-12-14 05:28:00,
2013-12-14 00:31:00,41.7,29.6,30.16,SSW,212,2.0,3.0,62,0.00,,,0.00,Wunderground v.1.15,2013-12-14 05:31:00,
2013-12-14 00:34:00,41.4,29.7,30.16,SSW,212,4.0,4.0,63,0.00,,,0.00,Wunderground v.1.15,2013-12-14 05:34:00,
2013-12-14 00:35:00,41.3,29.6,30.17,SW,230,3.0,4.0,63,0.00,,,0.00,Wunderground v.1.15,2013-12-14 05:35:00,
2013-12-14 00:36:00,41.2,29.9,30.17,SW,231,0.0,4.0,64,0.00,,,0.00,Wunderground v.1.15,2013-12-14 05:36:00,
2013-12-14 00:37:00,41.1,29.8,30.17,SSW,200,2.0,4.0,64,0.00,,,0.00,Wunderground v.1.15,2013-12-14 05:37:00,
2013-12-14 00:40:00,40.9,29.7,30.17,SW,226,3.0,3.0,64,0.00,,,0.00,Wunderground v.1.15,2013-12-14 05:40:00,
2013-12-14 00:42:00,40.7,29.5,30.17,WSW,257,3.0,4.0,64,0.00,,,0.00,Wunderground v.1.15,2013-12-14 05:42:00,
2013-12-14 00:43:00,40.7,29.8,30.17,WSW,257,0.0,4.0,65,0.00,,,0.00,Wunderground v.1.15,2013-12-14 05:43:00,
2013-12-14 00:44:00,40.7,29.8,30.17,WSW,257,2.0,4.0,65,0.00,,,0.00,Wunderground v.1.15,2013-12-14 05:44:00,
2013-12-14 00:47:00,40.6,29.7,30.18,WSW,257,1.0,4.0,65,0.00,,,0.00,Wunderground v.1.15,2013-12-14 05:47:00,
2013-12-14 00:48:00,40.5,29.7,30.17,WSW,257,1.0,4.0,65,0.00,,,0.00,Wunderground v.1.15,2013-12-14 05:48:00,
2013-12-14 00:49:00,40.5,30.0,30.18,WSW,257,1.0,4.0,66,0.00,,,0.00,Wunderground v.1.15,2013-12-14 05:49:00,
2013-12-14 00:52:00,40.4,29.6,30.18,WSW,257,1.0,2.0,65,0.00,,,0.00,Wunderground v.1.15,2013-12-14 05:52:00,
2013-12-14 00:53:00,40.4,29.9,30.18,WSW,257,2.0,2.0,66,0.00,,,0.00,Wunderground v.1.15,2013-12-14 05:53:00,
2013-12-14 00:54:00,40.4,29.6,30.18,WSW,257,1.0,2.0,65,0.00,,,0.00,Wunderground v.1.15,2013-12-14 05:54:00,
2013-12-14 00:56:00,40.4,29.6,30.18,WSW,257,0.0,3.0,65,0.00,,,0.00,Wunderground v.1.15,2013-12-14 05:56:00,
2013-12-14 00:57:00,40.3,29.5,30.17,WSW,257,0.0,3.0,65,0.00,,,0.00,Wunderground v.1.15,2013-12-14 05:57:00,
2013-12-14 01:01:00,40.3,29.5,30.17,WSW,257,0.0,1.0,65,0.00,,,0.00,Wunderground v.1.15,2013-12-14 06:01:00,
2013-12-14 01:02:00,40.3,29.5,30.17,WSW,257,0.0,1.0,65,0.00,,,0.00,Wunderground v.1.15,2013-12-14 06:02:00,
2013-12-14 01:05:00,40.3,29.8,30.17,WSW,257,0.0,1.0,66,0.00,,,0.00,Wunderground v.1.15,2013-12-14 06:05:00,
2013-12-14 01:07:00,40.3,29.5,30.17,WSW,257,0.0,1.0,65,0.00,,,0.00,Wunderground v.1.15,2013-12-14 06:07:00,
2013-12-14 01:09:00,40.3,29.5,30.17,WSW,257,0.0,1.0,65,0.00,,,0.00,Wunderground v.1.15,2013-12-14 06:09:00,
2013-12-14 01:11:00,40.3,29.8,30.17,WSW,257,0.0,0.0,66,0.00,,,0.00,Wunderground v.1.15,2013-12-14 06:11:00,
2013-12-14 01:14:00,40.2,30.1,30.16,WSW,257,0.0,0.0,67,0.00,,,0.00,Wunderground v.1.15,2013-12-14 06:14:00,
2013-12-14 01:15:00,40.2,30.5,30.16,WSW,257,0.0,0.0,68,0.00,,,0.00,Wunderground v.1.15,2013-12-14 06:15:00,
2013-12-14 01:16:00,40.2,30.1,30.16,WSW,257,0.0,0.0,67,0.00,,,0.00,Wunderground v.1.15,2013-12-14 06:16:00,
2013-12-14 01:18:00,40.2,30.5,30.16,WSW,257,1.0,1.0,68,0.00,,,0.00,Wunderground v.1.15,2013-12-14 06:18:00,
2013-12-14 01:19:00,40.1,29.6,30.16,WSW,257,1.0,1.0,66,0.00,,,0.00,Wunderground v.1.15,2013-12-14 06:19:00,
2013-12-14 01:24:00,40.1,30.4,30.15,WSW,257,3.0,3.0,68,0.00,,,0.00,Wunderground v.1.15,2013-12-14 06:24:00,
2013-12-14 01:25:00,40.1,30.4,30.14,WSW,257,1.0,3.0,68,0.00,,,0.00,Wunderground v.1.15,2013-12-14 06:25:00,
2013-12-14 01:27:00,40.0,30.3,30.13,West,259,2.0,3.0,68,0.00,,,0.00,Wunderground v.1.15,2013-12-14 06:27:00,
2013-12-14 01:29:00,39.9,29.8,30.13,West,259,1.0,2.0,67,0.00,,,0.00,Wunderground v.1.15,2013-12-14 06:29:00,
2013-12-14 01:32:00,39.9,29.5,30.13,West,259,1.0,2.0,66,0.00,,,0.00,Wunderground v.1.15,2013-12-14 06:32:00,
2013-12-14 01:37:00,40.0,29.2,30.14,West,260,2.0,3.0,65,0.00,,,0.00,Wunderground v.1.15,2013-12-14 06:37:00,
2013-12-14 01:38:00,40.1,29.3,30.13,West,260,1.0,3.0,65,0.00,,,0.00,Wunderground v.1.15,2013-12-14 06:38:00,
2013-12-14 01:39:00,40.1,28.9,30.14,West,260,3.0,3.0,64,0.00,,,0.00,Wunderground v.1.15,2013-12-14 06:39:00,
2013-12-14 01:40:00,40.2,28.6,30.14,NW,317,3.0,3.0,63,0.00,,,0.00,Wunderground v.1.15,2013-12-14 06:40:00,
2013-12-14 01:44:00,40.4,29.6,30.14,NNW,340,3.0,3.0,65,0.00,,,0.00,Wunderground v.1.15,2013-12-14 06:44:00,
2013-12-14 01:45:00,40.4,29.2,30.13,NNW,348,3.0,3.0,64,0.00,,,0.00,Wunderground v.1.15,2013-12-14 06:45:00,
2013-12-14 01:46:00,40.5,27.3,30.13,NNW,348,0.0,3.0,59,0.00,,,0.00,Wunderground v.1.15,2013-12-14 06:46:00,
2013-12-14 01:49:00,40.8,29.6,30.14,SE,129,0.0,3.0,64,0.00,,,0.00,Wunderground v.1.15,2013-12-14 06:49:00,
2013-12-14 01:52:00,40.9,30.4,30.13,SE,129,0.0,2.0,66,0.00,,,0.00,Wunderground v.1.15,2013-12-14 06:52:00,
2013-12-14 01:53:00,40.9,30.4,30.13,SE,130,0.0,2.0,66,0.00,,,0.00,Wunderground v.1.15,2013-12-14 06:53:00,
2013-12-14 01:57:00,40.7,30.2,30.13,SE,130,1.0,2.0,66,0.00,,,0.00,Wunderground v.1.15,2013-12-14 06:57:00,
2013-12-14 01:58:00,40.6,30.1,30.12,SE,130,0.0,2.0,66,0.00,,,0.00,Wunderground v.1.15,2013-12-14 06:58:00,
2013-12-14 01:59:00,40.6,30.1,30.12,SE,130,0.0,2.0,66,0.00,,,0.00,Wunderground v.1.15,2013-12-14 06:59:00,
2013-12-14 02:01:00,40.7,29.1,30.12,SSW,207,2.0,3.0,63,0.00,,,0.00,Wunderground v.1.15,2013-12-14 07:01:00,
2013-12-14 02:02:00,40.9,29.3,30.12,SSW,207,0.0,3.0,63,0.00,,,0.00,Wunderground v.1.15,2013-12-14 07:02:00,
2013-12-14 02:03:00,41.0,29.0,30.12,SSW,207,2.0,3.0,62,0.00,,,0.00,Wunderground v.1.15,2013-12-14 07:03:00,
2013-12-14 02:04:00,41.2,29.2,30.12,SSW,208,2.0,3.0,62,0.00,,,0.00,Wunderground v.1.15,2013-12-14 07:04:00,
2013-12-14 02:06:00,41.5,29.4,30.12,SSW,208,2.0,3.0,62,0.00,,,0.00,Wunderground v.1.15,2013-12-14 07:06:00,
2013-12-14 02:07:00,41.6,29.1,30.12,North,9,2.0,4.0,61,0.00,,,0.00,Wunderground v.1.15,2013-12-14 07:07:00,
2013-12-14 02:08:00,41.9,29.4,30.12,South,172,5.0,12.0,61,0.00,,,0.00,Wunderground v.1.15,2013-12-14 07:08:00,
2013-12-14 02:09:00,42.0,29.1,30.12,South,184,0.0,12.0,60,0.00,,,0.00,Wunderground v.1.15,2013-12-14 07:09:00,
2013-12-14 02:11:00,42.5,27.9,30.12,SW,228,6.0,9.0,56,0.00,,,0.00,Wunderground v.1.15,2013-12-14 07:11:00,
2013-12-14 02:12:00,42.8,28.2,30.11,WSW,256,2.0,9.0,56,0.00,,,0.00,Wunderground v.1.15,2013-12-14 07:12:00,
2013-12-14 02:14:00,44.0,28.9,30.11,South,171,6.0,14.0,55,0.00,,,0.00,Wunderground v.1.15,2013-12-14 07:14:00,
2013-12-14 02:16:00,45.0,27.5,30.11,SW,217,3.0,14.0,50,0.00,,,0.00,Wunderground v.1.15,2013-12-14 07:16:00,
2013-12-14 02:17:00,45.6,27.5,30.11,WSW,242,4.0,14.0,49,0.00,,,0.00,Wunderground v.1.15,2013-12-14 07:17:00,
2013-12-14 02:18:00,45.7,27.6,30.11,WSW,241,4.0,14.0,49,0.00,,,0.00,Wunderground v.1.15,2013-12-14 07:18:00,
2013-12-14 02:19:00,46.3,28.2,30.11,SSE,164,3.0,4.0,49,0.00,,,0.00,Wunderground v.1.15,2013-12-14 07:19:00,
2013-12-14 02:20:00,46.5,28.8,30.11,SE,144,6.0,6.0,50,0.00,,,0.00,Wunderground v.1.15,2013-12-14 07:20:00,
2013-12-14 02:22:00,46.9,28.2,30.11,SSE,154,4.0,11.0,48,0.00,,,0.00,Wunderground v.1.15,2013-12-14 07:22:00,
2013-12-14 02:23:00,47.2,28.5,30.12,South,184,2.0,11.0,48,0.00,,,0.00,Wunderground v.1.15,2013-12-14 07:23:00,
2013-12-14 02:24:00,47.4,28.7,30.11,SE,139,2.0,11.0,48,0.00,,,0.00,Wunderground v.1.15,2013-12-14 07:24:00,
2013-12-14 02:26:00,47.6,28.3,30.11,SSE,150,9.0,11.0,47,0.00,,,0.00,Wunderground v.1.15,2013-12-14 07:26:00,
2013-12-14 02:27:00,47.7,28.4,30.11,SW,236,3.0,11.0,47,0.00,,,0.00,Wunderground v.1.15,2013-12-14 07:27:00,
2013-12-14 02:28:00,47.9,28.1,30.11,WSW,250,1.0,11.0,46,0.00,,,0.00,Wunderground v.1.15,2013-12-14 07:28:00,
2013-12-14 02:30:00,48.1,28.3,30.11,NNW,347,3.0,5.0,46,0.00,,,0.00,Wunderground v.1.15,2013-12-14 07:30:00,
2013-12-14 02:31:00,48.1,29.3,30.10,NNW,348,2.0,6.0,48,0.00,,,0.00,Wunderground v.1.15,2013-12-14 07:31:00,
2013-12-14 02:32:00,48.0,29.7,30.10,ESE,123,3.0,6.0,49,0.00,,,0.00,Wunderground v.1.15,2013-12-14 07:32:00,
2013-12-14 02:34:00,48.0,28.7,30.10,South,178,3.0,8.0,47,0.00,,,0.00,Wunderground v.1.15,2013-12-14 07:34:00,
2013-12-14 02:35:00,47.9,28.6,30.10,South,178,2.0,9.0,47,0.00,,,0.00,Wunderground v.1.15,2013-12-14 07:35:00,
2013-12-14 02:36:00,48.0,29.2,30.09,South,177,5.0,13.0,48,0.00,,,0.00,Wunderground v.1.15,2013-12-14 07:36:00,
2013-12-14 02:38:00,48.1,28.8,30.09,SW,234,3.0,13.0,47,0.00,,,0.00,Wunderground v.1.15,2013-12-14 07:38:00,
2013-12-14 02:39:00,48.1,28.8,30.09,SSW,211,2.0,13.0,47,0.00,,,0.00,Wunderground v.1.15,2013-12-14 07:39:00,
2013-12-14 02:40:00,48.1,28.8,30.09,SSE,162,4.0,20.0,47,0.00,,,0.00,Wunderground v.1.15,2013-12-14 07:40:00,
2013-12-14 02:41:00,48.2,28.9,30.09,West,273,2.0,20.0,47,0.00,,,0.00,Wunderground v.1.15,2013-12-14 07:41:00,
2013-12-14 02:43:00,48.4,28.5,30.09,ENE,67,3.0,20.0,46,0.00,,,0.00,Wunderground v.1.15,2013-12-14 07:43:00,
2013-12-14 02:44:00,48.5,28.6,30.08,ESE,117,6.0,20.0,46,0.00,,,0.00,Wunderground v.1.15,2013-12-14 07:44:00,
2013-12-14 02:45:00,48.5,28.6,30.08,SE,137,10.0,20.0,46,0.00,,,0.00,Wunderground v.1.15,2013-12-14 07:45:00,
2013-12-14 02:46:00,48.6,28.7,30.08,ENE,74,3.0,20.0,46,0.00,,,0.00,Wunderground v.1.15,2013-12-14 07:46:00,
2013-12-14 02:48:00,48.8,28.4,30.08,ENE,68,5.0,20.0,45,0.00,,,0.00,Wunderground v.1.15,2013-12-14 07:48:00,
2013-12-14 02:49:00,48.8,28.4,30.07,East,80,5.0,6.0,45,0.00,,,0.00,Wunderground v.1.15,2013-12-14 07:49:00,
2013-12-14 02:50:00,48.9,28.5,30.07,South,170,5.0,6.0,45,0.00,,,0.00,Wunderground v.1.15,2013-12-14 07:50:00,
2013-12-14 02:51:00,49.0,28.6,30.07,South,173,6.0,13.0,45,0.00,,,0.00,Wunderground v.1.15,2013-12-14 07:51:00,
2013-12-14 02:53:00,49.1,28.7,30.07,South,169,12.0,17.0,45,0.00,,,0.00,Wunderground v.1.15,2013-12-14 07:53:00,
2013-12-14 02:55:00,49.2,28.7,30.07,South,185,6.0,17.0,45,0.00,,,0.00,Wunderground v.1.15,2013-12-14 07:55:00,
2013-12-14 02:56:00,49.2,28.7,30.07,ESE,123,6.0,17.0,45,0.00,,,0.00,Wunderground v.1.15,2013-12-14 07:56:00,
2013-12-14 02:59:00,49.2,28.7,30.06,SSE,158,9.0,17.0,45,0.00,,,0.00,Wunderground v.1.15,2013-12-14 07:59:00,
2013-12-14 03:00:00,49.2,28.7,30.06,ESE,123,3.0,11.0,45,0.00,,,0.00,Wunderground v.1.15,2013-12-14 08:00:00,
2013-12-14 03:01:00,49.2,28.7,30.06,East,96,10.0,14.0,45,0.00,,,0.00,Wunderground v.1.15,2013-12-14 08:01:00,
2013-12-14 03:02:00,49.2,28.7,30.06,NNE,21,6.0,14.0,45,0.00,,,0.00,Wunderground v.1.15,2013-12-14 08:02:00,
2013-12-14 03:05:00,49.3,28.3,30.06,SE,144,7.0,15.0,44,0.00,,,0.00,Wunderground v.1.15,2013-12-14 08:05:00,
2013-12-14 03:06:00,49.3,28.3,30.06,SE,143,12.0,15.0,44,0.00,,,0.00,Wunderground v.1.15,2013-12-14 08:06:00,
2013-12-14 03:07:00,49.3,28.3,30.06,SSW,196,13.0,21.0,44,0.00,,,0.00,Wunderground v.1.15,2013-12-14 08:07:00,
2013-12-14 03:10:00,49.4,28.4,30.06,ESE,119,13.0,13.0,44,0.00,,,0.00,Wunderground v.1.15,2013-12-14 08:10:00,
2013-12-14 03:11:00,49.4,28.9,30.05,SSW,198,6.0,14.0,45,0.00,,,0.00,Wunderground v.1.15,2013-12-14 08:11:00,
2013-12-14 03:12:00,49.4,28.9,30.05,South,173,8.0,14.0,45,0.00,,,0.00,Wunderground v.1.15,2013-12-14 08:12:00,
2013-12-14 03:16:00,49.5,28.5,30.06,ESE,109,16.0,18.0,44,0.00,,,0.00,Wunderground v.1.15,2013-12-14 08:16:00,
2013-12-14 03:17:00,49.5,28.5,30.06,SW,224,6.0,18.0,44,0.00,,,0.00,Wunderground v.1.15,2013-12-14 08:17:00,
2013-12-14 03:18:00,49.6,29.1,30.06,South,179,11.0,18.0,45,0.00,,,0.00,Wunderground v.1.15,2013-12-14 08:18:00,
2013-12-14 03:21:00,49.6,29.1,30.07,South,190,5.0,12.0,45,0.00,,,0.00,Wunderground v.1.15,2013-12-14 08:21:00,
2013-12-14 03:22:00,49.6,29.1,30.07,NE,55,5.0,12.0,45,0.00,,,0.00,Wunderground v.1.15,2013-12-14 08:22:00,
2013-12-14 03:23:00,49.7,29.2,30.06,West,259,3.0,13.0,45,0.00,,,0.00,Wunderground v.1.15,2013-12-14 08:23:00,
2013-12-14 03:26:00,49.7,28.6,30.06,SW,219,4.0,13.0,44,0.00,,,0.00,Wunderground v.1.15,2013-12-14 08:26:00,
2013-12-14 03:27:00,49.7,29.2,30.06,East,95,3.0,13.0,45,0.00,,,0.00,Wunderground v.1.15,2013-12-14 08:27:00,
2013-12-14 03:28:00,49.7,28.6,30.06,SE,146,3.0,13.0,44,0.00,,,0.00,Wunderground v.1.15,2013-12-14 08:28:00,
2013-12-14 03:29:00,49.7,29.2,30.06,SSE,167,14.0,14.0,45,0.00,,,0.00,Wunderground v.1.15,2013-12-14 08:29:00,
2013-12-14 03:32:00,49.6,29.1,30.05,SE,128,15.0,17.0,45,0.00,,,0.00,Wunderground v.1.15,2013-12-14 08:32:00,
2013-12-14 03:33:00,49.6,29.1,30.05,SE,126,17.0,17.0,45,0.00,,,0.00,Wunderground v.1.15,2013-12-14 08:33:00,
2013-12-14 03:35:00,49.7,29.2,30.05,SSE,163,5.0,17.0,45,0.00,,,0.00,Wunderground v.1.15,2013-12-14 08:35:00,
2013-12-14 03:38:00,49.7,29.2,30.05,SSE,150,5.0,17.0,45,0.00,,,0.00,Wunderground v.1.15,2013-12-14 08:38:00,
2013-12-14 03:39:00,49.8,29.3,30.05,SW,223,2.0,17.0,45,0.00,,,0.00,Wunderground v.1.15,2013-12-14 08:39:00,
2013-12-14 03:40:00,49.8,29.3,30.05,SE,136,11.0,14.0,45,0.00,,,0.00,Wunderground v.1.15,2013-12-14 08:40:00,
2013-12-14 03:44:00,49.8,29.3,30.06,SW,227,2.0,14.0,45,0.00,,,0.00,Wunderground v.1.15,2013-12-14 08:44:00,
2013-12-14 03:45:00,49.8,29.8,30.05,West,269,18.0,18.0,46,0.00,,,0.00,Wunderground v.1.15,2013-12-14 08:45:00,
2013-12-14 03:46:00,49.8,29.8,30.05,SSW,198,2.0,18.0,46,0.00,,,0.00,Wunderground v.1.15,2013-12-14 08:46:00,
2013-12-14 03:49:00,49.8,29.3,30.04,SSW,192,3.0,18.0,45,0.00,,,0.00,Wunderground v.1.15,2013-12-14 08:49:00,
2013-12-14 03:50:00,49.8,30.4,30.04,South,186,4.0,5.0,47,0.00,,,0.00,Wunderground v.1.15,2013-12-14 08:50:00,
2013-12-14 03:51:00,49.7,30.3,30.03,NE,55,6.0,10.0,47,0.00,,,0.00,Wunderground v.1.15,2013-12-14 08:51:00,
2013-12-14 03:54:00,49.6,29.6,30.03,SSE,148,5.0,11.0,46,0.00,,,0.00,Wunderground v.1.15,2013-12-14 08:54:00,
2013-12-14 03:55:00,49.6,29.6,30.03,SE,144,4.0,11.0,46,0.00,,,0.00,Wunderground v.1.15,2013-12-14 08:55:00,
2013-12-14 03:56:00,49.6,30.2,30.03,WSW,244,2.0,11.0,47,0.00,,,0.00,Wunderground v.1.15,2013-12-14 08:56:00,
2013-12-14 03:59:00,49.6,29.6,30.03,South,179,3.0,13.0,46,0.00,,,0.00,Wunderground v.1.15,2013-12-14 08:59:00,
2013-12-14 04:00:00,49.6,29.6,30.03,South,180,6.0,6.0,46,0.00,,,0.00,Wunderground v.1.15,2013-12-14 09:00:00,
2013-12-14 04:01:00,49.6,31.2,30.03,SSW,195,5.0,7.0,49,0.00,,,0.00,Wunderground v.1.15,2013-12-14 09:01:00,
2013-12-14 04:05:00,49.7,30.8,30.04,SE,135,2.0,13.0,48,0.00,,,0.00,Wunderground v.1.15,2013-12-14 09:05:00,
2013-12-14 04:06:00,49.7,30.3,30.03,SE,138,12.0,21.0,47,0.00,,,0.00,Wunderground v.1.15,2013-12-14 09:06:00,
2013-12-14 04:08:00,49.7,30.8,30.03,SW,215,3.0,21.0,48,0.00,,,0.00,Wunderground v.1.15,2013-12-14 09:08:00,
2013-12-14 04:10:00,49.6,30.2,30.03,West,263,2.0,6.0,47,0.00,,,0.00,Wunderground v.1.15,2013-12-14 09:10:00,
2013-12-14 04:11:00,49.6,30.7,30.04,SSW,209,4.0,10.0,48,0.00,,,0.00,Wunderground v.1.15,2013-12-14 09:11:00,
2013-12-14 04:12:00,49.6,30.7,30.04,SSW,203,10.0,11.0,48,0.00,,,0.00,Wunderground v.1.15,2013-12-14 09:12:00,
2013-12-14 04:13:00,49.7,30.8,30.02,NE,51,4.0,12.0,48,0.00,,,0.00,Wunderground v.1.15,2013-12-14 09:13:00,
2013-12-14 04:15:00,49.6,30.7,30.02,SSW,206,4.0,12.0,48,0.00,,,0.00,Wunderground v.1.15,2013-12-14 09:15:00,
2013-12-14 04:17:00,49.6,30.7,30.01,SSE,158,7.0,12.0,48,0.00,,,0.00,Wunderground v.1.15,2013-12-14 09:17:00,
2013-12-14 04:18:00,49.6,30.7,30.01,SSW,192,3.0,14.0,48,0.00,,,0.00,Wunderground v.1.15,2013-12-14 09:18:00,
2013-12-14 04:20:00,49.6,30.7,30.02,ENE,68,9.0,9.0,48,0.00,,,0.00,Wunderground v.1.15,2013-12-14 09:20:00,
2013-12-14 04:22:00,49.5,31.1,30.02,SE,141,4.0,13.0,49,0.00,,,0.00,Wunderground v.1.15,2013-12-14 09:22:00,
2013-12-14 04:23:00,49.5,30.6,30.02,SSW,200,5.0,13.0,48,0.00,,,0.00,Wunderground v.1.15,2013-12-14 09:23:00,
2013-12-14 04:25:00,49.5,31.1,30.02,SW,223,6.0,13.0,49,0.00,,,0.00,Wunderground v.1.15,2013-12-14 09:25:00,
2013-12-14 04:27:00,49.5,31.1,30.03,SE,134,5.0,14.0,49,0.00,,,0.00,Wunderground v.1.15,2013-12-14 09:27:00,
2013-12-14 04:28:00,49.5,31.1,30.03,South,184,6.0,14.0,49,0.00,,,0.00,Wunderground v.1.15,2013-12-14 09:28:00,
2013-12-14 04:29:00,49.5,31.1,30.03,SSE,152,1.0,14.0,49,0.00,,,0.00,Wunderground v.1.15,2013-12-14 09:29:00,
2013-12-14 04:31:00,49.5,31.6,30.02,SSE,157,10.0,11.0,50,0.00,,,0.00,Wunderground v.1.15,2013-12-14 09:31:00,
2013-12-14 04:32:00,49.5,31.6,30.02,SSE,155,5.0,12.0,50,0.00,,,0.00,Wunderground v.1.15,2013-12-14 09:32:00,
2013-12-14 04:33:00,49.6,31.7,30.02,SSW,201,4.0,12.0,50,0.00,,,0.00,Wunderground v.1.15,2013-12-14 09:33:00,
2013-12-14 04:34:00,49.6,31.7,30.02,SW,227,9.0,12.0,50,0.00,,,0.00,Wunderground v.1.15,2013-12-14 09:34:00,
2013-12-14 04:36:00,49.6,31.2,30.01,South,186,2.0,12.0,49,0.00,,,0.00,Wunderground v.1.15,2013-12-14 09:36:00,
2013-12-14 04:38:00,49.5,31.1,30.01,ESE,104,5.0,12.0,49,0.00,,,0.00,Wunderground v.1.15,2013-12-14 09:38:00,
2013-12-14 04:39:00,49.5,31.6,30.01,SE,140,5.0,12.0,50,0.00,,,0.00,Wunderground v.1.15,2013-12-14 09:39:00,
2013-12-14 04:42:00,49.5,32.1,30.00,NE,46,13.0,16.0,51,0.00,,,0.00,Wunderground v.1.15,2013-12-14 09:42:00,
2013-12-14 04:43:00,49.5,32.1,30.00,ENE,76,6.0,16.0,51,0.00,,,0.00,Wunderground v.1.15,2013-12-14 09:43:00,
2013-12-14 04:44:00,49.5,32.1,30.00,ESE,116,13.0,16.0,51,0.00,,,0.00,Wunderground v.1.15,2013-12-14 09:44:00,
2013-12-14 04:47:00,49.6,32.7,30.00,SSE,168,4.0,16.0,52,0.00,,,0.00,Wunderground v.1.15,2013-12-14 09:47:00,
2013-12-14 04:48:00,49.6,32.7,30.00,SSE,156,2.0,16.0,52,0.00,,,0.00,Wunderground v.1.15,2013-12-14 09:48:00,
2013-12-14 04:49:00,49.6,32.2,30.00,SSE,148,3.0,16.0,51,0.00,,,0.00,Wunderground v.1.15,2013-12-14 09:49:00,
2013-12-14 04:50:00,49.6,32.7,30.00,South,190,1.0,6.0,52,0.00,,,0.00,Wunderground v.1.15,2013-12-14 09:50:00,
2013-12-14 04:52:00,49.6,33.2,30.00,SSW,208,6.0,9.0,53,0.00,,,0.00,Wunderground v.1.15,2013-12-14 09:52:00,
2013-12-14 04:54:00,49.6,33.2,30.00,SSE,156,11.0,11.0,53,0.00,,,0.00,Wunderground v.1.15,2013-12-14 09:54:00,
2013-12-14 04:55:00,49.6,33.2,30.00,SE,124,11.0,12.0,53,0.00,,,0.00,Wunderground v.1.15,2013-12-14 09:55:00,
2013-12-14 04:57:00,49.6,33.2,30.00,East,97,5.0,12.0,53,0.00,,,0.00,Wunderground v.1.15,2013-12-14 09:57:00,
2013-12-14 04:59:00,49.6,33.2,30.00,SE,136,7.0,14.0,53,0.00,,,0.00,Wunderground v.1.15,2013-12-14 09:59:00,
2013-12-14 05:00:00,49.6,33.2,30.00,SSE,163,5.0,5.0,53,0.00,,,0.00,Wunderground v.1.15,2013-12-14 10:00:00,
2013-12-14 05:01:00,49.6,33.6,30.00,SSW,205,4.0,10.0,54,0.00,,,0.00,Wunderground v.1.15,2013-12-14 10:01:00,
2013-12-14 05:02:00,49.7,33.7,30.00,South,171,3.0,10.0,54,0.00,,,0.00,Wunderground v.1.15,2013-12-14 10:02:00,
2013-12-14 05:05:00,49.7,33.7,30.00,SSW,210,6.0,10.0,54,0.00,,,0.00,Wunderground v.1.15,2013-12-14 10:05:00,
2013-12-14 05:06:00,49.8,33.8,30.00,WSW,242,10.0,11.0,54,0.00,,,0.00,Wunderground v.1.15,2013-12-14 10:06:00,
2013-12-14 05:07:00,49.9,34.8,30.00,SE,126,9.0,19.0,56,0.00,,,0.00,Wunderground v.1.15,2013-12-14 10:07:00,
2013-12-14 05:10:00,49.9,34.4,30.00,SSW,212,7.0,9.0,55,0.00,,,0.00,Wunderground v.1.15,2013-12-14 10:10:00,
2013-12-14 05:11:00,49.9,34.8,30.00,NE,51,5.0,14.0,56,0.00,,,0.00,Wunderground v.1.15,2013-12-14 10:11:00,
2013-12-14 05:13:00,49.9,34.8,30.00,ESE,118,8.0,14.0,56,0.00,,,0.00,Wunderground v.1.15,2013-12-14 10:13:00,
2013-12-14 05:15:00,50.0,35.4,30.01,South,178,6.0,17.0,57,0.00,,,0.00,Wunderground v.1.15,2013-12-14 10:15:00,
2013-12-14 05:16:00,50.1,35.0,30.01,WNW,291,15.0,17.0,56,0.00,,,0.00,Wunderground v.1.15,2013-12-14 10:16:00,
2013-12-14 05:18:00,50.2,35.5,30.01,South,169,3.0,17.0,57,0.00,,,0.00,Wunderground v.1.15,2013-12-14 10:18:00,
2013-12-14 05:21:00,50.3,35.2,30.01,South,169,3.0,7.0,56,0.00,,,0.00,Wunderground v.1.15,2013-12-14 10:21:00,
2013-12-14 05:22:00,50.3,35.6,30.01,WSW,246,10.0,13.0,57,0.00,,,0.00,Wunderground v.1.15,2013-12-14 10:22:00,
2013-12-14 05:23:00,50.3,35.6,30.01,SSE,148,6.0,13.0,57,0.00,,,0.00,Wunderground v.1.15,2013-12-14 10:23:00,
2013-12-14 05:26:00,50.3,35.6,30.01,South,169,10.0,13.0,57,0.00,,,0.00,Wunderground v.1.15,2013-12-14 10:26:00,
2013-12-14 05:27:00,50.3,35.6,30.01,South,169,14.0,14.0,57,0.00,,,0.00,Wunderground v.1.15,2013-12-14 10:27:00,
2013-12-14 05:28:00,50.3,35.6,30.01,SW,231,14.0,14.0,57,0.00,,,0.00,Wunderground v.1.15,2013-12-14 10:28:00,
2013-12-14 05:31:00,50.4,35.7,30.01,SE,128,5.0,13.0,57,0.00,,,0.00,Wunderground v.1.15,2013-12-14 10:31:00,
2013-12-14 05:32:00,50.4,35.3,30.01,SSE,166,5.0,13.0,56,0.00,,,0.00,Wunderground v.1.15,2013-12-14 10:32:00,
2013-12-14 05:33:00,50.4,35.7,30.01,ESE,123,5.0,13.0,57,0.00,,,0.00,Wunderground v.1.15,2013-12-14 10:33:00,
2013-12-14 05:36:00,50.3,35.6,30.01,ESE,102,7.0,15.0,57,0.00,,,0.00,Wunderground v.1.15,2013-12-14 10:36:00,
2013-12-14 05:37:00,50.3,35.6,30.00,ESE,103,3.0,15.0,57,0.00,,,0.00,Wunderground v.1.15,2013-12-14 10:37:00,
2013-12-14 05:38:00,50.2,35.5,30.00,West,273,3.0,15.0,57,0.00,,,0.00,Wunderground v.1.15,2013-12-14 10:38:00,
2013-12-14 05:39:00,50.3,36.1,30.00,SSE,163,5.0,15.0,58,0.00,,,0.00,Wunderground v.1.15,2013-12-14 10:39:00,
2013-12-14 05:41:00,50.2,36.4,30.00,NE,48,5.0,9.0,59,0.00,,,0.00,Wunderground v.1.15,2013-12-14 10:41:00,
2013-12-14 05:42:00,50.2,36.4,30.00,SE,144,5.0,12.0,59,0.00,,,0.00,Wunderground v.1.15,2013-12-14 10:42:00,
2013-12-14 05:43:00,50.2,36.4,30.01,SSW,207,10.0,13.0,59,0.00,,,0.00,Wunderground v.1.15,2013-12-14 10:43:00,
2013-12-14 05:44:00,50.3,36.5,30.01,SSE,160,7.0,13.0,59,0.00,,,0.00,Wunderground v.1.15,2013-12-14 10:44:00,
2013-12-14 05:46:00,50.3,36.5,30.00,SE,136,5.0,13.0,59,0.00,,,0.00,Wunderground v.1.15,2013-12-14 10:46:00,
2013-12-14 05:48:00,50.3,36.5,30.00,SE,146,5.0,13.0,59,0.00,,,0.00,Wunderground v.1.15,2013-12-14 10:48:00,
2013-12-14 05:49:00,50.3,36.5,30.00,ESE,119,4.0,13.0,59,0.00,,,0.00,Wunderground v.1.15,2013-12-14 10:49:00,
2013-12-14 05:51:00,50.4,36.2,30.00,SE,146,4.0,18.0,58,0.00,,,0.00,Wunderground v.1.15,2013-12-14 10:51:00,
2013-12-14 05:52:00,50.4,37.0,30.00,ENE,75,8.0,18.0,60,0.00,,,0.00,Wunderground v.1.15,2013-12-14 10:52:00,
2013-12-14 05:53:00,50.4,37.0,30.00,East,84,6.0,18.0,60,0.00,,,0.00,Wunderground v.1.15,2013-12-14 10:53:00,
2013-12-14 05:54:00,50.4,36.6,30.00,NE,46,9.0,18.0,59,0.00,,,0.00,Wunderground v.1.15,2013-12-14 10:54:00,
2013-12-14 05:55:00,50.4,36.6,30.00,SSE,157,7.0,18.0,59,0.00,,,0.00,Wunderground v.1.15,2013-12-14 10:55:00,
2013-12-14 05:57:00,50.4,36.6,29.99,ESE,104,7.0,18.0,59,0.00,,,0.00,Wunderground v.1.15,2013-12-14 10:57:00,
2013-12-14 05:59:00,50.4,36.6,29.99,SE,143,4.0,18.0,59,0.00,,,0.00,Wunderground v.1.15,2013-12-14 10:59:00,
2013-12-14 06:00:00,50.4,37.0,29.98,SSW,206,10.0,11.0,60,0.00,,,0.00,Wunderground v.1.15,2013-12-14 11:00:00,
2013-12-14 06:02:00,50.4,37.0,29.98,East,83,2.0,11.0,60,0.00,,,0.00,Wunderground v.1.15,2013-12-14 11:02:00,
2013-12-14 06:03:00,50.4,37.0,29.98,SE,146,5.0,11.0,60,0.00,,,0.00,Wunderground v.1.15,2013-12-14 11:03:00,
2013-12-14 06:04:00,50.4,37.4,29.98,East,92,10.0,14.0,61,0.00,,,0.00,Wunderground v.1.15,2013-12-14 11:04:00,
2013-12-14 06:05:00,50.4,37.4,29.98,South,173,5.0,14.0,61,0.00,,,0.00,Wunderground v.1.15,2013-12-14 11:05:00,
2013-12-14 06:06:00,50.4,37.4,29.98,SE,130,3.0,14.0,61,0.00,,,0.00,Wunderground v.1.15,2013-12-14 11:06:00,
2013-12-14 06:08:00,50.4,38.3,29.98,SSW,211,2.0,14.0,63,0.00,,,0.00,Wunderground v.1.15,2013-12-14 11:08:00,
2013-12-14 06:10:00,50.5,37.5,29.98,SSE,160,3.0,5.0,61,0.00,,,0.00,Wunderground v.1.15,2013-12-14 11:10:00,
2013-12-14 06:11:00,50.5,37.5,29.98,SE,138,4.0,5.0,61,0.00,,,0.00,Wunderground v.1.15,2013-12-14 11:11:00,
2013-12-14 06:13:00,50.5,37.5,29.98,SE,128,6.0,9.0,61,0.00,,,0.00,Wunderground v.1.15,2013-12-14 11:13:00,
2013-12-14 06:14:00,50.5,38.0,29.98,SSE,164,6.0,12.0,62,0.00,,,0.00,Wunderground v.1.15,2013-12-14 11:14:00,
2013-12-14 06:15:00,50.5,37.5,29.98,SSE,157,4.0,12.0,61,0.00,,,0.00,Wunderground v.1.15,2013-12-14 11:15:00,
2013-12-14 06:16:00,50.5,38.0,29.98,SSW,195,6.0,12.0,62,0.00,,,0.00,Wunderground v.1.15,2013-12-14 11:16:00,
2013-12-14 06:18:00,50.5,38.4,29.99,NE,51,5.0,13.0,63,0.00,,,0.00,Wunderground v.1.15,2013-12-14 11:18:00,
2013-12-14 06:19:00,50.5,38.4,29.99,South,183,4.0,15.0,63,0.00,,,0.00,Wunderground v.1.15,2013-12-14 11:19:00,
2013-12-14 06:21:00,50.5,38.0,29.99,SSE,165,5.0,15.0,62,0.00,,,0.00,Wunderground v.1.15,2013-12-14 11:21:00,
2013-12-14 06:23:00,50.5,38.4,29.99,East,99,3.0,20.0,63,0.00,,,0.00,Wunderground v.1.15,2013-12-14 11:23:00,
2013-12-14 06:25:00,50.5,38.4,29.98,SE,135,11.0,20.0,63,0.00,,,0.00,Wunderground v.1.15,2013-12-14 11:25:00,
2013-12-14 06:26:00,50.6,38.5,29.98,South,176,7.0,20.0,63,0.00,,,0.00,Wunderground v.1.15,2013-12-14 11:26:00,
2013-12-14 06:27:00,50.5,38.4,29.98,ESE,122,10.0,20.0,63,0.00,,,0.00,Wunderground v.1.15,2013-12-14 11:27:00,
2013-12-14 06:28:00,50.6,38.9,29.98,South,180,3.0,20.0,64,0.00,,,0.00,Wunderground v.1.15,2013-12-14 11:28:00,
2013-12-14 06:31:00,50.6,38.5,29.97,WSW,242,5.0,13.0,63,0.00,,,0.00,Wunderground v.1.15,2013-12-14 11:31:00,
2013-12-14 06:32:00,50.6,38.9,29.97,SE,130,6.0,13.0,64,0.00,,,0.00,Wunderground v.1.15,2013-12-14 11:32:00,
2013-12-14 06:33:00,50.6,38.5,29.97,WSW,252,2.0,13.0,63,0.00,,,0.00,Wunderground v.1.15,2013-12-14 11:33:00,
2013-12-14 06:36:00,50.6,38.9,29.97,SSE,155,7.0,14.0,64,0.00,,,0.00,Wunderground v.1.15,2013-12-14 11:36:00,
2013-12-14 06:37:00,50.7,39.0,29.97,SE,138,6.0,14.0,64,0.00,,,0.00,Wunderground v.1.15,2013-12-14 11:37:00,
2013-12-14 06:38:00,50.6,38.5,29.97,South,180,5.0,14.0,63,0.00,,,0.00,Wunderground v.1.15,2013-12-14 11:38:00,
2013-12-14 06:42:00,50.4,40.6,29.96,SE,129,4.0,17.0,69,0.00,,,0.00,Wunderground v.1.15,2013-12-14 11:42:00,
2013-12-14 06:43:00,50.4,41.3,29.96,ESE,117,9.0,17.0,71,0.00,,,0.00,Wunderground v.1.15,2013-12-14 11:43:00,
2013-12-14 06:44:00,50.1,41.8,29.96,SE,132,13.0,17.0,73,0.00,,,0.00,Wunderground v.1.15,2013-12-14 11:44:00,
2013-12-14 06:47:00,49.5,41.6,29.96,ESE,113,7.0,26.0,74,0.00,,,0.01,Wunderground v.1.15,2013-12-14 11:47:00,
2013-12-14 06:48:00,49.4,41.5,29.96,NNE,29,8.0,26.0,74,0.00,,,0.01,Wunderground v.1.15,2013-12-14 11:48:00,
2013-12-14 06:49:00,49.2,42.0,29.96,SSE,150,5.0,26.0,76,0.00,,,0.01,Wunderground v.1.15,2013-12-14 11:49:00,
2013-12-14 06:52:00,48.8,41.9,29.96,SSE,156,10.0,19.0,77,0.00,,,0.01,Wunderground v.1.15,2013-12-14 11:52:00,
2013-12-14 06:53:00,48.8,41.9,29.96,ESE,104,6.0,19.0,77,0.00,,,0.01,Wunderground v.1.15,2013-12-14 11:53:00,
2013-12-14 06:54:00,48.7,42.1,29.96,SSE,157,12.0,19.0,78,0.00,,,0.01,Wunderground v.1.15,2013-12-14 11:54:00,
2013-12-14 06:55:00,48.6,42.0,29.96,SSE,152,6.0,19.0,78,0.00,,,0.01,Wunderground v.1.15,2013-12-14 11:55:00,
2013-12-14 06:58:00,48.6,42.4,29.96,SSE,149,3.0,20.0,79,0.00,,,0.01,Wunderground v.1.15,2013-12-14 11:58:00,
2013-12-14 06:59:00,48.6,42.4,29.96,SE,129,9.0,20.0,79,0.04,,,0.02,Wunderground v.1.15,2013-12-14 11:59:00,
2013-12-14 07:00:00,48.6,42.4,29.97,SSE,161,11.0,20.0,79,0.04,,,0.02,Wunderground v.1.15,2013-12-14 12:00:00,
2013-12-14 07:03:00,48.6,43.0,29.96,SSE,159,11.0,20.0,81,0.18,,,0.03,Wunderground v.1.15,2013-12-14 12:03:00,
2013-12-14 07:04:00,48.5,42.9,29.95,SSW,207,7.0,20.0,81,0.18,,,0.03,Wunderground v.1.15,2013-12-14 12:04:00,
2013-12-14 07:05:00,48.5,42.9,29.95,SSE,165,8.0,20.0,81,0.18,,,0.03,Wunderground v.1.15,2013-12-14 12:05:00,
2013-12-14 07:08:00,48.2,43.0,29.95,South,184,4.0,20.0,82,0.10,,,0.03,Wunderground v.1.15,2013-12-14 12:08:00,
2013-12-14 07:10:00,48.0,43.1,29.95,South,178,11.0,11.0,83,0.08,,,0.04,Wunderground v.1.15,2013-12-14 12:10:00,
2013-12-14 07:11:00,48.0,43.1,29.95,SE,144,11.0,14.0,83,0.08,,,0.04,Wunderground v.1.15,2013-12-14 12:11:00,
2013-12-14 07:13:00,48.0,43.4,29.95,ESE,121,10.0,20.0,84,0.08,,,0.04,Wunderground v.1.15,2013-12-14 12:13:00,
2013-12-14 07:15:00,48.1,43.8,29.94,SSE,151,6.0,20.0,85,0.08,,,0.04,Wunderground v.1.15,2013-12-14 12:15:00,
2013-12-14 07:16:00,48.0,43.7,29.94,ESE,117,12.0,20.0,85,0.09,,,0.05,Wunderground v.1.15,2013-12-14 12:16:00,
2013-12-14 07:18:00,47.9,43.6,29.94,SSE,156,7.0,20.0,85,0.09,,,0.05,Wunderground v.1.15,2013-12-14 12:18:00,
2013-12-14 07:20:00,47.9,43.9,29.94,SE,134,6.0,12.0,86,0.09,,,0.05,Wunderground v.1.15,2013-12-14 12:20:00,
2013-12-14 07:21:00,47.9,43.9,29.94,SE,143,6.0,12.0,86,0.12,,,0.06,Wunderground v.1.15,2013-12-14 12:21:00,
2013-12-14 07:23:00,47.9,43.9,29.94,SSE,163,12.0,16.0,86,0.12,,,0.06,Wunderground v.1.15,2013-12-14 12:23:00,
2013-12-14 07:25:00,47.9,43.9,29.94,SSE,147,1.0,16.0,86,0.17,,,0.07,Wunderground v.1.15,2013-12-14 12:25:00,
2013-12-14 07:26:00,47.9,43.9,29.94,SSE,152,11.0,16.0,86,0.17,,,0.07,Wunderground v.1.15,2013-12-14 12:26:00,
2013-12-14 07:27:00,47.9,44.2,29.94,SE,132,11.0,16.0,87,0.17,,,0.07,Wunderground v.1.15,2013-12-14 12:27:00,
2013-12-14 07:28:00,47.9,44.2,29.94,South,178,5.0,16.0,87,0.13,,,0.07,Wunderground v.1.15,2013-12-14 12:28:00,
2013-12-14 07:30:00,47.9,44.2,29.94,ESE,115,4.0,12.0,87,0.11,,,0.08,Wunderground v.1.15,2013-12-14 12:30:00,
2013-12-14 07:31:00,47.8,44.1,29.94,NE,45,4.0,12.0,87,0.11,,,0.08,Wunderground v.1.15,2013-12-14 12:31:00,
2013-12-14 07:32:00,47.8,44.1,29.94,ESE,107,6.0,12.0,87,0.27,,,0.09,Wunderground v.1.15,2013-12-14 12:32:00,
2013-12-14 07:34:00,47.8,44.1,29.94,ENE,70,2.0,12.0,87,0.22,,,0.09,Wunderground v.1.15,2013-12-14 12:34:00,
2013-12-14 07:35:00,47.7,44.3,29.94,SE,142,6.0,16.0,88,0.18,,,0.10,Wunderground v.1.15,2013-12-14 12:35:00,
2013-12-14 07:36:00,47.7,44.3,29.94,SE,137,10.0,16.0,88,0.18,,,0.10,Wunderground v.1.15,2013-12-14 12:36:00,
2013-12-14 07:38:00,47.6,44.2,29.93,SE,136,4.0,16.0,88,0.18,,,0.10,Wunderground v.1.15,2013-12-14 12:38:00,
2013-12-14 07:39:00,47.6,44.2,29.93,ESE,115,6.0,16.0,88,0.17,,,0.11,Wunderground v.1.15,2013-12-14 12:39:00,
2013-12-14 07:41:00,47.6,44.2,29.93,NE,44,4.0,11.0,88,0.17,,,0.11,Wunderground v.1.15,2013-12-14 12:41:00,
2013-12-14 07:42:00,47.6,44.2,29.92,SE,132,7.0,11.0,88,0.15,,,0.11,Wunderground v.1.15,2013-12-14 12:42:00,
2013-12-14 07:44:00,47.6,44.5,29.92,SE,144,6.0,11.0,89,0.11,,,0.11,Wunderground v.1.15,2013-12-14 12:44:00,
2013-12-14 07:47:00,47.5,44.4,29.92,SSW,199,10.0,11.0,89,0.08,,,0.12,Wunderground v.1.15,2013-12-14 12:47:00,
2013-12-14 07:49:00,47.6,44.5,29.91,SSE,150,9.0,9.0,89,0.18,,,0.13,Wunderground v.1.15,2013-12-14 12:49:00,
2013-12-14 07:50:00,47.6,44.5,29.92,SE,124,9.0,13.0,89,0.18,,,0.13,Wunderground v.1.15,2013-12-14 12:50:00,
2013-12-14 07:52:00,47.7,44.6,29.92,South,175,9.0,16.0,89,0.18,,,0.13,Wunderground v.1.15,2013-12-14 12:52:00,
2013-12-14 07:53:00,47.7,44.9,29.92,ESE,111,7.0,17.0,90,0.17,,,0.13,Wunderground v.1.15,2013-12-14 12:53:00,
2013-12-14 07:54:00,47.7,44.9,29.91,NE,54,5.0,17.0,90,0.16,,,0.14,Wunderground v.1.15,2013-12-14 12:54:00,
2013-12-14 07:56:00,47.7,44.9,29.92,SSE,156,5.0,31.0,90,0.22,,,0.15,Wunderground v.1.15,2013-12-14 12:56:00,
2013-12-14 07:57:00,47.7,44.9,29.91,SE,140,15.0,31.0,90,0.22,,,0.15,Wunderground v.1.15,2013-12-14 12:57:00,
2013-12-14 07:59:00,47.7,44.9,29.91,SSE,147,6.0,31.0,90,0.20,,,0.15,Wunderground v.1.15,2013-12-14 12:59:00,
2013-12-14 08:00:00,47.7,44.9,29.92,SW,227,10.0,22.0,90,0.15,,,0.15,Wunderground v.1.15,2013-12-14 13:00:00,
2013-12-14 08:01:00,47.7,44.9,29.91,South,191,5.0,22.0,90,0.14,,,0.16,Wunderground v.1.15,2013-12-14 13:01:00,
2013-12-14 08:02:00,47.7,44.9,29.92,SE,140,11.0,22.0,90,0.14,,,0.16,Wunderground v.1.15,2013-12-14 13:02:00,
2013-12-14 08:04:00,47.8,45.0,29.92,ESE,123,6.0,22.0,90,0.14,,,0.16,Wunderground v.1.15,2013-12-14 13:04:00,
2013-12-14 08:05:00,47.8,45.0,29.92,South,186,7.0,22.0,90,0.13,,,0.16,Wunderground v.1.15,2013-12-14 13:05:00,
2013-12-14 08:06:00,47.7,44.9,29.91,SE,132,12.0,22.0,90,0.11,,,0.17,Wunderground v.1.15,2013-12-14 13:06:00,
2013-12-14 08:07:00,47.8,45.0,29.91,SSE,159,7.0,24.0,90,0.11,,,0.17,Wunderground v.1.15,2013-12-14 13:07:00,
2013-12-14 08:09:00,47.9,44.8,29.91,SW,214,7.0,24.0,89,0.11,,,0.17,Wunderground v.1.15,2013-12-14 13:09:00,
2013-12-14 08:10:00,47.9,45.1,29.92,ENE,63,10.0,14.0,90,0.18,,,0.18,Wunderground v.1.15,2013-12-14 13:10:00,
2013-12-14 08:12:00,47.9,45.1,29.90,South,173,11.0,16.0,90,0.24,,,0.19,Wunderground v.1.15,2013-12-14 13:12:00,
2013-12-14 08:14:00,47.9,45.1,29.90,SSW,209,7.0,16.0,90,0.23,,,0.19,Wunderground v.1.15,2013-12-14 13:14:00,
2013-12-14 08:15:00,47.9,45.1,29.91,SSE,152,10.0,16.0,90,0.17,,,0.19,Wunderground v.1.15,2013-12-14 13:15:00,
2013-12-14 08:17:00,47.9,45.1,29.92,South,177,4.0,19.0,90,0.17,,,0.20,Wunderground v.1.15,2013-12-14 13:17:00,
2013-12-14 08:18:00,47.9,45.1,29.92,SE,133,10.0,19.0,90,0.17,,,0.20,Wunderground v.1.15,2013-12-14 13:18:00,
2013-12-14 08:19:00,47.9,45.1,29.91,South,190,4.0,19.0,90,0.23,,,0.21,Wunderground v.1.15,2013-12-14 13:19:00,
2013-12-14 08:20:00,47.9,45.1,29.90,SE,144,3.0,8.0,90,0.23,,,0.21,Wunderground v.1.15,2013-12-14 13:20:00,
2013-12-14 08:23:00,48.0,45.2,29.90,East,92,13.0,16.0,90,0.41,,,0.23,Wunderground v.1.15,2013-12-14 13:23:00,
2013-12-14 08:24:00,48.0,45.2,29.90,ESE,103,6.0,16.0,90,0.41,,,0.23,Wunderground v.1.15,2013-12-14 13:24:00,
2013-12-14 08:25:00,48.0,45.5,29.90,NE,55,5.0,18.0,91,0.31,,,0.23,Wunderground v.1.15,2013-12-14 13:25:00,
2013-12-14 08:26:00,48.1,45.6,29.90,SSE,148,12.0,18.0,91,0.23,,,0.23,Wunderground v.1.15,2013-12-14 13:26:00,
2013-12-14 08:28:00,48.1,45.6,29.90,ESE,111,8.0,18.0,91,0.32,,,0.25,Wunderground v.1.15,2013-12-14 13:28:00,
2013-12-14 08:30:00,48.2,45.7,29.90,SE,131,10.0,18.0,91,0.32,,,0.25,Wunderground v.1.15,2013-12-14 13:30:00,
2013-12-14 08:31:00,48.2,45.7,29.90,WSW,251,9.0,18.0,91,0.22,,,0.25,Wunderground v.1.15,2013-12-14 13:31:00,
2013-12-14 08:33:00,48.3,45.8,29.90,South,179,3.0,18.0,91,0.27,,,0.27,Wunderground v.1.15,2013-12-14 13:33:00,
2013-12-14 08:34:00,48.3,45.8,29.90,WSW,247,7.0,18.0,91,0.27,,,0.27,Wunderground v.1.15,2013-12-14 13:34:00,
2013-12-14 08:36:00,48.3,45.8,29.90,ENE,73,7.0,18.0,91,0.23,,,0.27,Wunderground v.1.15,2013-12-14 13:36:00,
2013-12-14 08:37:00,48.3,45.8,29.90,SE,135,7.0,18.0,91,0.17,,,0.28,Wunderground v.1.15,2013-12-14 13:37:00,
2013-12-14 08:39:00,48.3,45.8,29.90,SSW,203,5.0,18.0,91,0.33,,,0.29,Wunderground v.1.15,2013-12-14 13:39:00,
2013-12-14 08:41:00,48.4,45.9,29.90,SE,141,6.0,15.0,91,0.26,,,0.29,Wunderground v.1.15,2013-12-14 13:41:00,
2013-12-14 08:42:00,48.4,45.9,29.89,ESE,113,7.0,17.0,91,0.21,,,0.30,Wunderground v.1.15,2013-12-14 13:42:00,
2013-12-14 08:44:00,48.3,45.8,29.88,SE,144,7.0,17.0,91,0.21,,,0.30,Wunderground v.1.15,2013-12-14 13:44:00,
2013-12-14 08:46:00,48.4,45.9,29.87,SE,137,17.0,20.0,91,0.21,,,0.31,Wunderground v.1.15,2013-12-14 13:46:00,
2013-12-14 08:47:00,48.4,45.9,29.87,SSW,196,1.0,20.0,91,0.19,,,0.31,Wunderground v.1.15,2013-12-14 13:47:00,
2013-12-14 08:49:00,48.5,46.0,29.86,ESE,113,15.0,20.0,91,0.13,,,0.32,Wunderground v.1.15,2013-12-14 13:49:00,
2013-12-14 08:50:00,48.5,46.0,29.86,SW,232,6.0,11.0,91,0.13,,,0.32,Wunderground v.1.15,2013-12-14 13:50:00,
2013-12-14 08:51:00,48.5,46.0,29.87,SE,128,18.0,18.0,91,0.13,,,0.32,Wunderground v.1.15,2013-12-14 13:51:00,
2013-12-14 08:53:00,48.6,46.1,29.87,East,100,12.0,26.0,91,0.22,,,0.33,Wunderground v.1.15,2013-12-14 13:53:00,
2013-12-14 08:54:00,48.7,46.2,29.86,SE,136,10.0,26.0,91,0.22,,,0.33,Wunderground v.1.15,2013-12-14 13:54:00,
2013-12-14 08:55:00,48.7,46.2,29.86,ESE,120,13.0,26.0,91,0.17,,,0.33,Wunderground v.1.15,2013-12-14 13:55:00,
2013-12-14 08:56:00,48.8,46.3,29.86,SW,217,6.0,26.0,91,0.14,,,0.33,Wunderground v.1.15,2013-12-14 13:56:00,
2013-12-14 08:58:00,48.8,46.3,29.87,SSE,161,7.0,26.0,91,0.10,,,0.34,Wunderground v.1.15,2013-12-14 13:58:00,
2013-12-14 08:59:00,48.8,46.3,29.88,SE,137,10.0,26.0,91,0.10,,,0.34,Wunderground v.1.15,2013-12-14 13:59:00,
2013-12-14 09:00:00,48.8,46.3,29.88,SSE,153,5.0,12.0,91,0.10,,,0.34,Wunderground v.1.15,2013-12-14 14:00:00,
2013-12-14 09:01:00,48.8,46.3,29.88,SSW,195,5.0,13.0,91,0.10,,,0.34,Wunderground v.1.15,2013-12-14 14:01:00,
2013-12-14 09:03:00,48.8,46.3,29.88,NE,49,12.0,17.0,91,0.13,,,0.35,Wunderground v.1.15,2013-12-14 14:03:00,
2013-12-14 09:04:00,48.9,46.4,29.88,South,169,9.0,17.0,91,0.13,,,0.35,Wunderground v.1.15,2013-12-14 14:04:00,
2013-12-14 09:06:00,48.9,46.4,29.88,South,188,4.0,17.0,91,0.15,,,0.36,Wunderground v.1.15,2013-12-14 14:06:00,
2013-12-14 09:07:00,49.0,46.5,29.88,ENE,74,9.0,17.0,91,0.15,,,0.36,Wunderground v.1.15,2013-12-14 14:07:00,
2013-12-14 09:08:00,49.0,46.5,29.87,SSW,209,5.0,17.0,91,0.15,,,0.36,Wunderground v.1.15,2013-12-14 14:08:00,
2013-12-14 09:10:00,49.0,46.5,29.87,ESE,119,3.0,8.0,91,0.22,,,0.37,Wunderground v.1.15,2013-12-14 14:10:00,
2013-12-14 09:11:00,49.0,46.5,29.87,South,182,6.0,18.0,91,0.22,,,0.37,Wunderground v.1.15,2013-12-14 14:11:00,
2013-12-14 09:12:00,49.0,46.5,29.87,ENE,72,10.0,18.0,91,0.19,,,0.37,Wunderground v.1.15,2013-12-14 14:12:00,
2013-12-14 09:13:00,49.0,46.5,29.86,ESE,105,12.0,21.0,91,0.17,,,0.38,Wunderground v.1.15,2013-12-14 14:13:00,
2013-12-14 09:15:00,49.0,46.5,29.87,ESE,109,11.0,22.0,91,0.35,,,0.39,Wunderground v.1.15,2013-12-14 14:15:00,
2013-12-14 09:17:00,49.0,46.5,29.86,SSE,150,1.0,22.0,91,0.31,,,0.40,Wunderground v.1.15,2013-12-14 14:17:00,
2013-12-14 09:18:00,49.0,46.5,29.86,ENE,71,7.0,22.0,91,0.29,,,0.40,Wunderground v.1.15,2013-12-14 14:18:00,
2013-12-14 09:20:00,49.0,46.8,29.86,SSE,167,4.0,8.0,92,0.26,,,0.41,Wunderground v.1.15,2013-12-14 14:20:00,
2013-12-14 09:22:00,49.0,46.8,29.86,SSW,202,10.0,16.0,92,0.16,,,0.41,Wunderground v.1.15,2013-12-14 14:22:00,
2013-12-14 09:23:00,49.0,46.8,29.86,SE,140,8.0,16.0,92,0.13,,,0.41,Wunderground v.1.15,2013-12-14 14:23:00,
2013-12-14 09:24:00,49.0,46.8,29.86,SSW,205,11.0,16.0,92,0.13,,,0.42,Wunderground v.1.15,2013-12-14 14:24:00,
2013-12-14 09:25:00,49.1,46.9,29.86,South,169,14.0,17.0,92,0.13,,,0.42,Wunderground v.1.15,2013-12-14 14:25:00,
2013-12-14 09:27:00,49.2,46.7,29.86,SSE,165,16.0,21.0,91,0.17,,,0.43,Wunderground v.1.15,2013-12-14 14:27:00,
2013-12-14 09:28:00,49.2,46.7,29.86,South,171,9.0,21.0,91,0.17,,,0.43,Wunderground v.1.15,2013-12-14 14:28:00,
2013-12-14 09:29:00,49.2,46.7,29.86,SE,140,8.0,21.0,91,0.17,,,0.43,Wunderground v.1.15,2013-12-14 14:29:00,
2013-12-14 09:31:00,49.2,46.7,29.86,SSE,160,1.0,15.0,91,0.14,,,0.44,Wunderground v.1.15,2013-12-14 14:31:00,
2013-12-14 09:32:00,49.2,46.7,29.87,WSW,252,24.0,24.0,91,0.14,,,0.44,Wunderground v.1.15,2013-12-14 14:32:00,
2013-12-14 09:34:00,49.3,46.8,29.87,SSW,203,6.0,24.0,91,0.37,,,0.45,Wunderground v.1.15,2013-12-14 14:34:00,
2013-12-14 09:36:00,49.3,46.8,29.87,SE,126,7.0,24.0,91,0.22,,,0.46,Wunderground v.1.15,2013-12-14 14:36:00,
2013-12-14 09:37:00,49.4,46.9,29.88,SW,227,15.0,24.0,91,0.33,,,0.47,Wunderground v.1.15,2013-12-14 14:37:00,
2013-12-14 09:39:00,49.4,46.9,29.88,SSW,192,9.0,24.0,91,0.33,,,0.47,Wunderground v.1.15,2013-12-14 14:39:00,
2013-12-14 09:40:00,49.4,46.9,29.88,SE,142,6.0,6.0,91,0.22,,,0.47,Wunderground v.1.15,2013-12-14 14:40:00,
2013-12-14 09:41:00,49.5,47.0,29.88,East,88,5.0,16.0,91,0.18,,,0.48,Wunderground v.1.15,2013-12-14 14:41:00,
2013-12-14 09:42:00,49.5,47.0,29.88,SE,137,6.0,16.0,91,0.18,,,0.48,Wunderground v.1.15,2013-12-14 14:42:00,
2013-12-14 09:44:00,49.6,47.1,29.89,ENE,72,9.0,16.0,91,0.24,,,0.48,Wunderground v.1.15,2013-12-14 14:44:00,
2013-12-14 09:45:00,49.6,47.1,29.88,SW,225,6.0,16.0,91,0.24,,,0.48,Wunderground v.1.15,2013-12-14 14:45:00,
2013-12-14 09:46:00,49.7,46.9,29.89,WSW,245,9.0,16.0,90,0.46,,,0.50,Wunderground v.1.15,2013-12-14 14:46:00,
2013-12-14 09:47:00,49.8,47.3,29.89,SW,233,3.0,16.0,91,0.46,,,0.50,Wunderground v.1.15,2013-12-14 14:47:00,
2013-12-14 09:49:00,49.8,47.0,29.89,SW,222,1.0,16.0,90,0.34,,,0.51,Wunderground v.1.15,2013-12-14 14:49:00,
2013-12-14 09:50:00,49.8,47.0,29.89,SW,222,1.0,6.0,90,0.37,,,0.52,Wunderground v.1.15,2013-12-14 14:50:00,
2013-12-14 09:51:00,49.8,47.3,29.89,SSW,200,4.0,6.0,91,0.32,,,0.52,Wunderground v.1.15,2013-12-14 14:51:00,
2013-12-14 09:52:00,49.7,47.2,29.89,SW,222,9.0,15.0,91,0.27,,,0.53,Wunderground v.1.15,2013-12-14 14:52:00,
2013-12-14 09:54:00,49.6,47.1,29.89,WSW,249,1.0,15.0,91,0.27,,,0.53,Wunderground v.1.15,2013-12-14 14:54:00,
2013-12-14 09:55:00,49.6,47.1,29.90,SW,214,2.0,15.0,91,0.25,,,0.54,Wunderground v.1.15,2013-12-14 14:55:00,
2013-12-14 09:57:00,49.4,46.9,29.90,SSW,196,4.0,15.0,91,0.30,,,0.55,Wunderground v.1.15,2013-12-14 14:57:00,
2013-12-14 09:59:00,49.4,46.9,29.90,SSW,193,5.0,15.0,91,0.46,,,0.56,Wunderground v.1.15,2013-12-14 14:59:00,
2013-12-14 10:00:00,49.5,47.0,29.90,South,173,3.0,8.0,91,0.35,,,0.57,Wunderground v.1.15,2013-12-14 15:00:00,
2013-12-14 10:02:00,49.4,46.9,29.90,WNW,284,3.0,8.0,91,0.32,,,0.59,Wunderground v.1.15,2013-12-14 15:02:00,
2013-12-14 10:03:00,49.5,47.0,29.90,WNW,284,6.0,8.0,91,0.32,,,0.59,Wunderground v.1.15,2013-12-14 15:03:00,
2013-12-14 10:04:00,49.5,47.3,29.91,West,280,0.0,8.0,92,0.36,,,0.59,Wunderground v.1.15,2013-12-14 15:04:00,
2013-12-14 10:05:00,49.4,47.2,29.92,West,261,3.0,8.0,92,0.36,,,0.60,Wunderground v.1.15,2013-12-14 15:05:00,
2013-12-14 10:07:00,49.5,47.3,29.92,WSW,240,2.0,8.0,92,0.24,,,0.61,Wunderground v.1.15,2013-12-14 15:07:00,
2013-12-14 10:08:00,49.5,47.3,29.93,WSW,240,1.0,8.0,92,0.47,,,0.62,Wunderground v.1.15,2013-12-14 15:08:00,
2013-12-14 10:09:00,49.4,47.2,29.93,WSW,240,2.0,3.0,92,0.43,,,0.63,Wunderground v.1.15,2013-12-14 15:09:00,
2013-12-14 10:10:00,49.4,47.2,29.94,WSW,240,1.0,3.0,92,0.43,,,0.63,Wunderground v.1.15,2013-12-14 15:10:00,
2013-12-14 10:12:00,49.3,47.1,29.96,West,268,4.0,5.0,92,0.34,,,0.64,Wunderground v.1.15,2013-12-14 15:12:00,
2013-12-14 10:13:00,49.3,47.4,29.97,WNW,290,2.0,9.0,93,0.62,,,0.66,Wunderground v.1.15,2013-12-14 15:13:00,
2013-12-14 10:15:00,49.2,47.3,29.97,SW,217,4.0,9.0,93,0.70,,,0.68,Wunderground v.1.15,2013-12-14 15:15:00,
2013-12-14 10:17:00,49.2,47.3,29.94,SW,214,0.0,9.0,93,0.68,,,0.70,Wunderground v.1.15,2013-12-14 15:17:00,
2013-12-14 10:18:00,49.2,47.3,29.93,WNW,294,1.0,9.0,93,0.53,,,0.71,Wunderground v.1.15,2013-12-14 15:18:00,
2013-12-14 10:19:00,49.2,47.3,29.93,WNW,294,0.0,9.0,93,0.53,,,0.71,Wunderground v.1.15,2013-12-14 15:19:00,
2013-12-14 10:20:00,49.2,47.3,29.91,WSW,240,3.0,3.0,93,0.55,,,0.72,Wunderground v.1.15,2013-12-14 15:20:00,
2013-12-14 10:21:00,49.2,47.3,29.91,South,179,1.0,3.0,93,0.55,,,0.73,Wunderground v.1.15,2013-12-14 15:21:00,
2013-12-14 10:22:00,49.2,47.3,29.91,South,171,1.0,6.0,93,0.47,,,0.74,Wunderground v.1.15,2013-12-14 15:22:00,
2013-12-14 10:23:00,49.2,47.5,29.92,SE,134,2.0,10.0,94,0.40,,,0.75,Wunderground v.1.15,2013-12-14 15:23:00,
2013-12-14 10:24:00,49.1,47.4,29.92,SE,144,9.0,10.0,94,0.64,,,0.75,Wunderground v.1.15,2013-12-14 15:24:00,
2013-12-14 10:25:00,49.1,47.4,29.91,SE,137,5.0,10.0,94,0.35,,,0.76,Wunderground v.1.15,2013-12-14 15:25:00,
2013-12-14 10:26:00,49.1,47.4,29.91,SSE,155,9.0,10.0,94,0.35,,,0.77,Wunderground v.1.15,2013-12-14 15:26:00,
2013-12-14 10:27:00,49.0,47.3,29.89,SE,133,1.0,10.0,94,0.55,,,0.78,Wunderground v.1.15,2013-12-14 15:27:00,
2013-12-14 10:28:00,49.0,47.3,29.88,SE,145,2.0,10.0,94,0.55,,,0.79,Wunderground v.1.15,2013-12-14 15:28:00,
2013-12-14 10:29:00,49.0,47.3,29.88,SE,126,1.0,10.0,94,0.49,,,0.79,Wunderground v.1.15,2013-12-14 15:29:00,
2013-12-14 10:30:00,49.0,47.3,29.87,ESE,123,2.0,4.0,94,0.27,,,0.80,Wunderground v.1.15,2013-12-14 15:30:00,
2013-12-14 10:31:00,48.9,47.2,29.88,SE,146,4.0,4.0,94,0.59,,,0.81,Wunderground v.1.15,2013-12-14 15:31:00,
2013-12-14 10:33:00,49.0,47.6,29.87,SSE,148,1.0,4.0,95,0.29,,,0.81,Wunderground v.1.15,2013-12-14 15:33:00,
2013-12-14 10:34:00,49.0,47.6,29.86,NE,43,5.0,5.0,95,0.17,,,0.81,Wunderground v.1.15,2013-12-14 15:34:00,
2013-12-14 10:35:00,49.0,47.6,29.86,WSW,242,4.0,13.0,95,0.17,,,0.82,Wunderground v.1.15,2013-12-14 15:35:00,
2013-12-14 10:36:00,49.1,47.7,29.85,SE,130,3.0,13.0,95,0.17,,,0.82,Wunderground v.1.15,2013-12-14 15:36:00,
2013-12-14 10:38:00,49.5,48.1,29.85,South,175,12.0,17.0,95,0.14,,,0.82,Wunderground v.1.15,2013-12-14 15:38:00,
2013-12-14 10:39:00,49.5,48.1,29.85,SSE,155,6.0,17.0,95,0.13,,,0.82,Wunderground v.1.15,2013-12-14 15:39:00,
2013-12-14 10:40:00,49.6,48.2,29.85,SE,142,5.0,12.0,95,0.11,,,0.82,Wunderground v.1.15,2013-12-14 15:40:00,
2013-12-14 10:41:00,49.7,48.3,29.85,SSW,206,6.0,12.0,95,0.09,,,0.82,Wunderground v.1.15,2013-12-14 15:41:00,
2013-12-14 10:43:00,49.8,48.1,29.85,WSW,238,4.0,14.0,94,0.06,,,0.82,Wunderground v.1.15,2013-12-14 15:43:00,
2013-12-14 10:45:00,49.8,48.1,29.86,WSW,247,6.0,14.0,94,0.06,,,0.82,Wunderground v.1.15,2013-12-14 15:45:00,
2013-12-14 10:46:00,49.9,48.2,29.86,WNW,300,3.0,14.0,94,0.05,,,0.82,Wunderground v.1.15,2013-12-14 15:46:00,
2013-12-14 10:49:00,50.0,48.3,29.87,NW,304,1.0,14.0,94,0.05,,,0.83,Wunderground v.1.15,2013-12-14 15:49:00,
2013-12-14 10:50:00,50.1,48.4,29.88,NW,304,2.0,4.0,94,0.05,,,0.83,Wunderground v.1.15,2013-12-14 15:50:00,
2013-12-14 10:51:00,50.2,48.5,29.88,West,265,3.0,4.0,94,0.05,,,0.83,Wunderground v.1.15,2013-12-14 15:51:00,
2013-12-14 10:52:00,50.2,48.5,29.88,SSW,207,9.0,12.0,94,0.05,,,0.83,Wunderground v.1.15,2013-12-14 15:52:00,
2013-12-14 10:54:00,50.0,48.1,29.88,SSW,207,2.0,12.0,93,0.05,,,0.83,Wunderground v.1.15,2013-12-14 15:54:00,
2013-12-14 10:55:00,49.9,48.0,29.88,SW,219,3.0,12.0,93,0.05,,,0.83,Wunderground v.1.15,2013-12-14 15:55:00,
2013-12-14 10:56:00,49.9,48.0,29.88,SW,219,2.0,12.0,93,0.05,,,0.83,Wunderground v.1.15,2013-12-14 15:56:00,
2013-12-14 10:57:00,49.9,48.2,29.88,SW,219,1.0,12.0,94,0.05,,,0.83,Wunderground v.1.15,2013-12-14 15:57:00,
2013-12-14 10:59:00,49.8,48.1,29.87,SW,229,2.0,3.0,94,0.05,,,0.83,Wunderground v.1.15,2013-12-14 15:59:00,
2013-12-14 11:01:00,49.7,48.0,29.87,WSW,246,4.0,4.0,94,0.04,,,0.83,Wunderground v.1.15,2013-12-14 16:01:00,
2013-12-14 11:02:00,49.7,48.0,29.87,West,259,2.0,5.0,94,0.04,,,0.83,Wunderground v.1.15,2013-12-14 16:02:00,
2013-12-14 11:05:00,49.7,48.0,29.86,NW,321,5.0,8.0,94,0.00,,,0.83,Wunderground v.1.15,2013-12-14 16:05:00,
2013-12-14 11:06:00,49.8,48.1,29.87,NW,310,3.0,8.0,94,0.00,,,0.83,Wunderground v.1.15,2013-12-14 16:06:00,
2013-12-14 11:07:00,49.9,48.2,29.87,NW,310,1.0,8.0,94,0.00,,,0.83,Wunderground v.1.15,2013-12-14 16:07:00,
2013-12-14 11:09:00,49.8,47.9,29.87,NW,311,3.0,8.0,93,0.00,,,0.83,Wunderground v.1.15,2013-12-14 16:09:00,
2013-12-14 11:10:00,49.7,47.8,29.87,NW,309,4.0,4.0,93,0.00,,,0.83,Wunderground v.1.15,2013-12-14 16:10:00,
2013-12-14 11:11:00,49.5,47.6,29.87,NW,310,0.0,4.0,93,0.00,,,0.83,Wunderground v.1.15,2013-12-14 16:11:00,
2013-12-14 11:12:00,49.5,47.6,29.87,NW,310,0.0,4.0,93,0.00,,,0.83,Wunderground v.1.15,2013-12-14 16:12:00,
2013-12-14 11:13:00,49.4,47.5,29.86,NW,310,0.0,4.0,93,0.00,,,0.83,Wunderground v.1.15,2013-12-14 16:13:00,
2013-12-14 11:14:00,49.3,47.4,29.87,NW,310,0.0,4.0,93,0.00,,,0.83,Wunderground v.1.15,2013-12-14 16:14:00,
2013-12-14 11:15:00,49.3,47.4,29.87,NW,310,0.0,4.0,93,0.00,,,0.83,Wunderground v.1.15,2013-12-14 16:15:00,
2013-12-14 11:16:00,49.2,47.3,29.86,NW,310,1.0,4.0,93,0.00,,,0.83,Wunderground v.1.15,2013-12-14 16:16:00,
2013-12-14 11:17:00,49.2,47.3,29.86,NW,310,1.0,4.0,93,0.00,,,0.83,Wunderground v.1.15,2013-12-14 16:17:00,
2013-12-14 11:18:00,49.2,47.5,29.87,NW,310,1.0,4.0,94,0.00,,,0.83,Wunderground v.1.15,2013-12-14 16:18:00,
2013-12-14 11:20:00,49.2,47.5,29.87,NW,310,2.0,3.0,94,0.00,,,0.83,Wunderground v.1.15,2013-12-14 16:20:00,
2013-12-14 11:21:00,49.2,47.5,29.87,NW,310,1.0,3.0,94,0.00,,,0.83,Wunderground v.1.15,2013-12-14 16:21:00,
2013-12-14 11:22:00,49.2,47.5,29.86,NW,310,0.0,3.0,94,0.00,,,0.83,Wunderground v.1.15,2013-12-14 16:22:00,
2013-12-14 11:24:00,49.2,47.5,29.86,NW,310,0.0,3.0,94,0.00,,,0.83,Wunderground v.1.15,2013-12-14 16:24:00,
2013-12-14 11:26:00,49.1,47.4,29.86,NW,310,1.0,3.0,94,0.00,,,0.83,Wunderground v.1.15,2013-12-14 16:26:00,
2013-12-14 11:27:00,49.1,47.4,29.86,NW,310,0.0,3.0,94,0.00,,,0.83,Wunderground v.1.15,2013-12-14 16:27:00,
2013-12-14 11:28:00,49.1,47.4,29.86,NW,310,0.0,3.0,94,0.00,,,0.83,Wunderground v.1.15,2013-12-14 16:28:00,
2013-12-14 11:29:00,49.1,47.4,29.86,NW,310,0.0,3.0,94,0.00,,,0.83,Wunderground v.1.15,2013-12-14 16:29:00,
2013-12-14 11:31:00,49.2,47.5,29.86,NW,310,2.0,3.0,94,0.00,,,0.83,Wunderground v.1.15,2013-12-14 16:31:00,
2013-12-14 11:32:00,49.2,47.8,29.86,NW,310,1.0,3.0,95,0.00,,,0.83,Wunderground v.1.15,2013-12-14 16:32:00,
2013-12-14 11:34:00,49.2,47.5,29.86,NW,310,2.0,3.0,94,0.00,,,0.83,Wunderground v.1.15,2013-12-14 16:34:00,
2013-12-14 11:36:00,49.2,47.5,29.86,NW,310,0.0,3.0,94,0.00,,,0.83,Wunderground v.1.15,2013-12-14 16:36:00,
2013-12-14 11:37:00,49.2,47.5,29.85,NW,310,0.0,3.0,94,0.00,,,0.83,Wunderground v.1.15,2013-12-14 16:37:00,
2013-12-14 11:38:00,49.1,47.4,29.85,NW,310,0.0,3.0,94,0.00,,,0.83,Wunderground v.1.15,2013-12-14 16:38:00,
2013-12-14 11:39:00,49.1,47.4,29.85,NW,310,0.0,3.0,94,0.00,,,0.83,Wunderground v.1.15,2013-12-14 16:39:00,
2013-12-14 11:40:00,49.2,47.5,29.85,NW,310,0.0,1.0,94,0.00,,,0.83,Wunderground v.1.15,2013-12-14 16:40:00,
2013-12-14 11:42:00,49.2,47.8,29.85,NW,310,1.0,3.0,95,0.00,,,0.83,Wunderground v.1.15,2013-12-14 16:42:00,
2013-12-14 11:44:00,49.2,47.8,29.85,NW,310,2.0,3.0,95,0.00,,,0.83,Wunderground v.1.15,2013-12-14 16:44:00,
2013-12-14 11:45:00,49.2,47.5,29.85,NW,310,2.0,4.0,94,0.00,,,0.83,Wunderground v.1.15,2013-12-14 16:45:00,
2013-12-14 11:47:00,49.1,47.4,29.85,NW,310,2.0,4.0,94,0.00,,,0.83,Wunderground v.1.15,2013-12-14 16:47:00,
2013-12-14 11:48:00,49.0,47.3,29.85,NW,310,4.0,4.0,94,0.00,,,0.83,Wunderground v.1.15,2013-12-14 16:48:00,
2013-12-14 11:49:00,49.0,47.3,29.85,NW,310,1.0,4.0,94,0.00,,,0.83,Wunderground v.1.15,2013-12-14 16:49:00,
2013-12-14 11:50:00,49.0,47.3,29.85,WNW,299,3.0,3.0,94,0.00,,,0.83,Wunderground v.1.15,2013-12-14 16:50:00,
2013-12-14 11:52:00,48.9,47.2,29.85,WNW,299,1.0,3.0,94,0.00,,,0.83,Wunderground v.1.15,2013-12-14 16:52:00,
2013-12-14 11:54:00,48.8,47.2,29.85,NW,310,1.0,3.0,94,0.00,,,0.83,Wunderground v.1.15,2013-12-14 16:54:00,
2013-12-14 11:55:00,48.7,47.1,29.85,NW,310,2.0,3.0,94,0.00,,,0.83,Wunderground v.1.15,2013-12-14 16:55:00,
2013-12-14 11:57:00,48.7,47.1,29.85,NW,308,3.0,3.0,94,0.00,,,0.83,Wunderground v.1.15,2013-12-14 16:57:00,
2013-12-14 11:59:00,48.7,47.3,29.84,NW,307,2.0,3.0,95,0.00,,,0.83,Wunderground v.1.15,2013-12-14 16:59:00,
2013-12-14 12:00:00,48.7,47.3,29.84,NW,308,0.0,2.0,95,0.00,,,0.83,Wunderground v.1.15,2013-12-14 17:00:00,
2013-12-14 12:01:00,48.6,47.0,29.84,NW,308,3.0,4.0,94,0.00,,,0.83,Wunderground v.1.15,2013-12-14 17:01:00,
2013-12-14 12:02:00,48.5,46.9,29.84,NW,308,4.0,4.0,94,0.00,,,0.83,Wunderground v.1.15,2013-12-14 17:02:00,
2013-12-14 12:04:00,48.4,46.8,29.84,West,269,2.0,5.0,94,0.00,,,0.83,Wunderground v.1.15,2013-12-14 17:04:00,
2013-12-14 12:06:00,48.3,46.7,29.84,West,273,1.0,5.0,94,0.00,,,0.83,Wunderground v.1.15,2013-12-14 17:06:00,
2013-12-14 12:07:00,48.2,46.6,29.84,West,273,1.0,5.0,94,0.00,,,0.83,Wunderground v.1.15,2013-12-14 17:07:00,
2013-12-14 12:09:00,48.1,46.5,29.84,West,280,1.0,5.0,94,0.00,,,0.83,Wunderground v.1.15,2013-12-14 17:09:00,
2013-12-14 12:10:00,48.1,46.5,29.84,West,280,3.0,3.0,94,0.00,,,0.83,Wunderground v.1.15,2013-12-14 17:10:00,
2013-12-14 12:11:00,48.0,46.4,29.84,West,273,4.0,5.0,94,0.00,,,0.83,Wunderground v.1.15,2013-12-14 17:11:00,
2013-12-14 12:12:00,48.0,46.4,29.84,West,274,0.0,5.0,94,0.00,,,0.83,Wunderground v.1.15,2013-12-14 17:12:00,
2013-12-14 12:15:00,47.7,46.1,29.84,West,275,1.0,5.0,94,0.00,,,0.83,Wunderground v.1.15,2013-12-14 17:15:00,
2013-12-14 12:16:00,47.6,46.0,29.83,WNW,299,1.0,5.0,94,0.00,,,0.83,Wunderground v.1.15,2013-12-14 17:16:00,
2013-12-14 12:17:00,47.6,46.0,29.83,WNW,299,1.0,5.0,94,0.00,,,0.83,Wunderground v.1.15,2013-12-14 17:17:00,
2013-12-14 12:20:00,47.5,46.1,29.83,WNW,296,1.0,2.0,95,0.00,,,0.83,Wunderground v.1.15,2013-12-14 17:20:00,
2013-12-14 12:22:00,47.5,46.1,29.83,WNW,297,3.0,3.0,95,0.00,,,0.83,Wunderground v.1.15,2013-12-14 17:22:00,
2013-12-14 12:23:00,47.5,46.1,29.82,WNW,296,2.0,3.0,95,0.00,,,0.83,Wunderground v.1.15,2013-12-14 17:23:00,
2013-12-14 12:25:00,47.6,46.2,29.82,WNW,297,2.0,3.0,95,0.00,,,0.83,Wunderground v.1.15,2013-12-14 17:25:00,
2013-12-14 12:26:00,47.6,46.2,29.82,WNW,296,1.0,3.0,95,0.00,,,0.83,Wunderground v.1.15,2013-12-14 17:26:00,
2013-12-14 12:27:00,47.7,46.3,29.82,WNW,298,2.0,3.0,95,0.00,,,0.83,Wunderground v.1.15,2013-12-14 17:27:00,
2013-12-14 12:28:00,47.7,46.3,29.82,WNW,299,3.0,4.0,95,0.00,,,0.83,Wunderground v.1.15,2013-12-14 17:28:00,
2013-12-14 12:30:00,47.8,46.4,29.82,WNW,299,2.0,2.0,95,0.00,,,0.83,Wunderground v.1.15,2013-12-14 17:30:00,
2013-12-14 12:31:00,47.8,46.4,29.82,WNW,299,3.0,3.0,95,0.00,,,0.83,Wunderground v.1.15,2013-12-14 17:31:00,
2013-12-14 12:32:00,47.9,46.5,29.81,WNW,299,1.0,3.0,95,0.00,,,0.83,Wunderground v.1.15,2013-12-14 17:32:00,
2013-12-14 12:33:00,47.9,46.8,29.81,WNW,299,3.0,3.0,96,0.00,,,0.83,Wunderground v.1.15,2013-12-14 17:33:00,
2013-12-14 12:34:00,47.8,46.7,29.81,WNW,299,3.0,3.0,96,0.00,,,0.83,Wunderground v.1.15,2013-12-14 17:34:00,
2013-12-14 12:35:00,47.8,46.4,29.81,WNW,296,2.0,4.0,95,0.00,,,0.83,Wunderground v.1.15,2013-12-14 17:35:00,
2013-12-14 12:36:00,47.8,46.4,29.81,WNW,296,1.0,4.0,95,0.00,,,0.83,Wunderground v.1.15,2013-12-14 17:36:00,
2013-12-14 12:37:00,47.7,46.3,29.81,WNW,296,3.0,4.0,95,0.00,,,0.83,Wunderground v.1.15,2013-12-14 17:37:00,
2013-12-14 12:39:00,47.7,46.3,29.81,WNW,287,3.0,5.0,95,0.00,,,0.83,Wunderground v.1.15,2013-12-14 17:39:00,
2013-12-14 12:41:00,47.7,46.3,29.81,WNW,288,3.0,3.0,95,0.00,,,0.83,Wunderground v.1.15,2013-12-14 17:41:00,
2013-12-14 12:42:00,47.7,46.3,29.81,WNW,284,2.0,3.0,95,0.00,,,0.83,Wunderground v.1.15,2013-12-14 17:42:00,
2013-12-14 12:44:00,47.7,46.3,29.81,WNW,284,3.0,4.0,95,0.00,,,0.83,Wunderground v.1.15,2013-12-14 17:44:00,
2013-12-14 12:46:00,47.7,46.6,29.81,WNW,284,1.0,4.0,96,0.00,,,0.83,Wunderground v.1.15,2013-12-14 17:46:00,
2013-12-14 12:47:00,47.8,46.4,29.81,WNW,284,1.0,4.0,95,0.00,,,0.83,Wunderground v.1.15,2013-12-14 17:47:00,
2013-12-14 12:48:00,47.8,46.7,29.81,WNW,284,0.0,4.0,96,0.00,,,0.83,Wunderground v.1.15,2013-12-14 17:48:00,
2013-12-14 12:49:00,47.8,46.7,29.81,WNW,284,2.0,4.0,96,0.00,,,0.83,Wunderground v.1.15,2013-12-14 17:49:00,
2013-12-14 12:51:00,47.8,46.7,29.80,WNW,284,0.0,2.0,96,0.00,,,0.83,Wunderground v.1.15,2013-12-14 17:51:00,
2013-12-14 12:53:00,47.9,46.8,29.80,WNW,283,3.0,3.0,96,0.00,,,0.83,Wunderground v.1.15,2013-12-14 17:53:00,
2013-12-14 12:54:00,47.9,46.8,29.80,WNW,283,2.0,4.0,96,0.00,,,0.83,Wunderground v.1.15,2013-12-14 17:54:00,
2013-12-14 12:57:00,47.9,46.8,29.80,WNW,284,2.0,4.0,96,0.00,,,0.83,Wunderground v.1.15,2013-12-14 17:57:00,
2013-12-14 12:58:00,47.9,46.8,29.80,WNW,284,1.0,4.0,96,0.00,,,0.83,Wunderground v.1.15,2013-12-14 17:58:00,
2013-12-14 13:00:00,47.9,46.8,29.80,WNW,284,3.0,3.0,96,0.00,,,0.83,Wunderground v.1.15,2013-12-14 18:00:00,
2013-12-14 13:02:00,47.8,46.7,29.80,WNW,288,1.0,4.0,96,0.00,,,0.83,Wunderground v.1.15,2013-12-14 18:02:00,
2013-12-14 13:03:00,47.9,46.8,29.80,WNW,287,2.0,4.0,96,0.00,,,0.83,Wunderground v.1.15,2013-12-14 18:03:00,
2013-12-14 13:06:00,47.7,46.3,29.80,WNW,287,1.0,4.0,95,0.00,,,0.83,Wunderground v.1.15,2013-12-14 18:06:00,
2013-12-14 13:08:00,47.6,46.2,29.80,WNW,287,1.0,4.0,95,0.00,,,0.83,Wunderground v.1.15,2013-12-14 18:08:00,
2013-12-14 13:09:00,47.6,46.2,29.80,WNW,287,1.0,4.0,95,0.00,,,0.83,Wunderground v.1.15,2013-12-14 18:09:00,
2013-12-14 13:11:00,47.5,46.1,29.80,West,277,2.0,4.0,95,0.00,,,0.83,Wunderground v.1.15,2013-12-14 18:11:00,
2013-12-14 13:13:00,47.4,46.0,29.80,West,276,2.0,4.0,95,0.00,,,0.83,Wunderground v.1.15,2013-12-14 18:13:00,
2013-12-14 13:14:00,47.4,46.0,29.80,West,277,4.0,4.0,95,0.00,,,0.83,Wunderground v.1.15,2013-12-14 18:14:00,
2013-12-14 13:15:00,47.3,45.9,29.80,West,279,2.0,5.0,95,0.00,,,0.83,Wunderground v.1.15,2013-12-14 18:15:00,
2013-12-14 13:16:00,47.3,45.9,29.80,West,278,2.0,5.0,95,0.00,,,0.83,Wunderground v.1.15,2013-12-14 18:16:00,
2013-12-14 13:17:00,47.2,45.8,29.80,West,277,1.0,5.0,95,0.00,,,0.83,Wunderground v.1.15,2013-12-14 18:17:00,
2013-12-14 13:18:00,47.2,45.8,29.80,West,278,2.0,5.0,95,0.00,,,0.83,Wunderground v.1.15,2013-12-14 18:18:00,
2013-12-14 13:19:00,47.2,45.8,29.80,West,278,2.0,2.0,95,0.00,,,0.83,Wunderground v.1.15,2013-12-14 18:19:00,
2013-12-14 13:20:00,47.2,45.8,29.80,West,278,2.0,2.0,95,0.00,,,0.83,Wunderground v.1.15,2013-12-14 18:20:00,
2013-12-14 13:21:00,47.2,45.8,29.80,West,281,4.0,5.0,95,0.00,,,0.83,Wunderground v.1.15,2013-12-14 18:21:00,
2013-12-14 13:22:00,47.2,45.8,29.80,WNW,283,1.0,5.0,95,0.00,,,0.83,Wunderground v.1.15,2013-12-14 18:22:00,
2013-12-14 13:23:00,47.2,45.8,29.80,WNW,284,3.0,5.0,95,0.00,,,0.83,Wunderground v.1.15,2013-12-14 18:23:00,
2013-12-14 13:25:00,47.2,45.8,29.80,WNW,284,2.0,5.0,95,0.00,,,0.83,Wunderground v.1.15,2013-12-14 18:25:00,
2013-12-14 13:26:00,47.2,45.8,29.80,WNW,284,0.0,5.0,95,0.00,,,0.83,Wunderground v.1.15,2013-12-14 18:26:00,
2013-12-14 13:27:00,47.2,45.8,29.80,West,281,2.0,5.0,95,0.00,,,0.83,Wunderground v.1.15,2013-12-14 18:27:00,
2013-12-14 13:28:00,47.3,45.9,29.79,WNW,283,0.0,5.0,95,0.00,,,0.83,Wunderground v.1.15,2013-12-14 18:28:00,
2013-12-14 13:30:00,47.3,45.9,29.80,WNW,283,2.0,3.0,95,0.00,,,0.83,Wunderground v.1.15,2013-12-14 18:30:00,
2013-12-14 13:32:00,47.2,45.8,29.79,WNW,283,0.0,3.0,95,0.00,,,0.83,Wunderground v.1.15,2013-12-14 18:32:00,
2013-12-14 13:33:00,47.2,45.8,29.79,WNW,283,0.0,3.0,95,0.00,,,0.83,Wunderground v.1.15,2013-12-14 18:33:00,
2013-12-14 13:34:00,47.2,45.8,29.79,WNW,283,1.0,3.0,95,0.00,,,0.83,Wunderground v.1.15,2013-12-14 18:34:00,
2013-12-14 13:35:00,47.2,45.8,29.79,WNW,283,2.0,3.0,95,0.00,,,0.83,Wunderground v.1.15,2013-12-14 18:35:00,
2013-12-14 13:37:00,47.1,45.7,29.79,WNW,283,0.0,3.0,95,0.00,,,0.83,Wunderground v.1.15,2013-12-14 18:37:00,
2013-12-14 13:38:00,47.2,45.8,29.79,WNW,283,1.0,3.0,95,0.00,,,0.83,Wunderground v.1.15,2013-12-14 18:38:00,
2013-12-14 13:39:00,47.2,45.8,29.79,WNW,283,1.0,3.0,95,0.00,,,0.83,Wunderground v.1.15,2013-12-14 18:39:00,
2013-12-14 13:40:00,47.2,45.8,29.79,WNW,283,0.0,1.0,95,0.00,,,0.83,Wunderground v.1.15,2013-12-14 18:40:00,
2013-12-14 13:42:00,47.3,46.2,29.79,WNW,283,0.0,1.0,96,0.00,,,0.83,Wunderground v.1.15,2013-12-14 18:42:00,
2013-12-14 13:44:00,47.3,46.2,29.79,WNW,283,1.0,2.0,96,0.00,,,0.83,Wunderground v.1.15,2013-12-14 18:44:00,
2013-12-14 13:45:00,47.3,46.2,29.79,WNW,283,0.0,2.0,96,0.00,,,0.83,Wunderground v.1.15,2013-12-14 18:45:00,
2013-12-14 13:48:00,47.4,46.3,29.78,WNW,283,0.0,3.0,96,0.00,,,0.83,Wunderground v.1.15,2013-12-14 18:48:00,
2013-12-14 13:49:00,47.4,46.3,29.78,WNW,283,1.0,3.0,96,0.00,,,0.83,Wunderground v.1.15,2013-12-14 18:49:00,
2013-12-14 13:50:00,47.4,46.3,29.78,WNW,283,0.0,1.0,96,0.00,,,0.83,Wunderground v.1.15,2013-12-14 18:50:00,
2013-12-14 13:51:00,47.4,46.3,29.78,WNW,283,0.0,1.0,96,0.00,,,0.83,Wunderground v.1.15,2013-12-14 18:51:00,
2013-12-14 13:53:00,47.5,46.4,29.78,WNW,283,0.0,1.0,96,0.00,,,0.83,Wunderground v.1.15,2013-12-14 18:53:00,
2013-12-14 13:54:00,47.6,46.5,29.78,WNW,283,0.0,1.0,96,0.00,,,0.83,Wunderground v.1.15,2013-12-14 18:54:00,
2013-12-14 13:55:00,47.5,46.4,29.78,WNW,283,0.0,1.0,96,0.00,,,0.83,Wunderground v.1.15,2013-12-14 18:55:00,
2013-12-14 13:56:00,47.6,46.5,29.78,WNW,283,0.0,1.0,96,0.00,,,0.83,Wunderground v.1.15,2013-12-14 18:56:00,
2013-12-14 13:58:00,47.7,46.6,29.78,WNW,283,0.0,1.0,96,0.00,,,0.83,Wunderground v.1.15,2013-12-14 18:58:00,
2013-12-14 13:59:00,47.7,46.6,29.78,WNW,283,0.0,1.0,96,0.00,,,0.83,Wunderground v.1.15,2013-12-14 18:59:00,
2013-12-14 14:00:00,47.7,46.6,29.78,WNW,283,1.0,1.0,96,0.00,,,0.83,Wunderground v.1.15,2013-12-14 19:00:00,
2013-12-14 14:01:00,47.7,46.6,29.78,WNW,283,0.0,1.0,96,0.00,,,0.83,Wunderground v.1.15,2013-12-14 19:01:00,
2013-12-14 14:02:00,47.7,46.6,29.78,WNW,283,0.0,1.0,96,0.00,,,0.83,Wunderground v.1.15,2013-12-14 19:02:00,
2013-12-14 14:04:00,47.8,46.7,29.78,WNW,283,2.0,3.0,96,0.00,,,0.83,Wunderground v.1.15,2013-12-14 19:04:00,
2013-12-14 14:05:00,47.8,46.7,29.78,WNW,283,0.0,3.0,96,0.00,,,0.83,Wunderground v.1.15,2013-12-14 19:05:00,
2013-12-14 14:06:00,47.8,46.7,29.78,WNW,283,0.0,3.0,96,0.00,,,0.83,Wunderground v.1.15,2013-12-14 19:06:00,
2013-12-14 14:07:00,47.9,46.8,29.78,WNW,283,0.0,3.0,96,0.00,,,0.83,Wunderground v.1.15,2013-12-14 19:07:00,
2013-12-14 14:09:00,47.9,46.8,29.78,WNW,283,0.0,3.0,96,0.00,,,0.83,Wunderground v.1.15,2013-12-14 19:09:00,
2013-12-14 14:10:00,47.9,46.8,29.78,WNW,283,0.0,1.0,96,0.00,,,0.83,Wunderground v.1.15,2013-12-14 19:10:00,
2013-12-14 14:11:00,48.0,46.9,29.78,WNW,283,1.0,2.0,96,0.00,,,0.83,Wunderground v.1.15,2013-12-14 19:11:00,
2013-12-14 14:12:00,48.0,46.9,29.78,WNW,283,0.0,2.0,96,0.00,,,0.83,Wunderground v.1.15,2013-12-14 19:12:00,
2013-12-14 14:14:00,48.0,46.9,29.78,WNW,283,0.0,2.0,96,0.00,,,0.83,Wunderground v.1.15,2013-12-14 19:14:00,
2013-12-14 14:15:00,48.0,46.9,29.78,WNW,283,0.0,2.0,96,0.00,,,0.83,Wunderground v.1.15,2013-12-14 19:15:00,
2013-12-14 14:16:00,48.0,46.9,29.78,WNW,283,0.0,2.0,96,0.00,,,0.83,Wunderground v.1.15,2013-12-14 19:16:00,
2013-12-14 14:17:00,48.0,46.9,29.78,WNW,283,0.0,2.0,96,0.00,,,0.83,Wunderground v.1.15,2013-12-14 19:17:00,
2013-12-14 14:18:00,48.0,46.9,29.78,WNW,283,1.0,2.0,96,0.00,,,0.83,Wunderground v.1.15,2013-12-14 19:18:00,
2013-12-14 14:19:00,48.1,47.0,29.78,WNW,283,0.0,0.0,96,0.00,,,0.83,Wunderground v.1.15,2013-12-14 19:19:00,
2013-12-14 14:20:00,48.1,47.0,29.78,WNW,283,0.0,0.0,96,0.00,,,0.83,Wunderground v.1.15,2013-12-14 19:20:00,
2013-12-14 14:21:00,48.1,47.0,29.78,WNW,283,1.0,2.0,96,0.00,,,0.83,Wunderground v.1.15,2013-12-14 19:21:00,
2013-12-14 14:22:00,48.1,47.0,29.78,WNW,283,0.0,2.0,96,0.00,,,0.83,Wunderground v.1.15,2013-12-14 19:22:00,
2013-12-14 14:23:00,48.1,47.0,29.78,WNW,283,0.0,2.0,96,0.00,,,0.83,Wunderground v.1.15,2013-12-14 19:23:00,
2013-12-14 14:25:00,48.2,47.1,29.78,WNW,283,2.0,2.0,96,0.00,,,0.83,Wunderground v.1.15,2013-12-14 19:25:00,
2013-12-14 14:26:00,48.2,47.1,29.78,WNW,283,0.0,2.0,96,0.00,,,0.83,Wunderground v.1.15,2013-12-14 19:26:00,
2013-12-14 14:28:00,48.2,47.1,29.78,WNW,283,0.0,2.0,96,0.00,,,0.83,Wunderground v.1.15,2013-12-14 19:28:00,
2013-12-14 14:30:00,48.2,47.1,29.78,WNW,283,1.0,1.0,96,0.00,,,0.83,Wunderground v.1.15,2013-12-14 19:30:00,
2013-12-14 14:33:00,48.2,47.1,29.78,West,272,1.0,2.0,96,0.00,,,0.83,Wunderground v.1.15,2013-12-14 19:33:00,
2013-12-14 14:34:00,48.3,47.2,29.78,West,272,1.0,3.0,96,0.00,,,0.83,Wunderground v.1.15,2013-12-14 19:34:00,
2013-12-14 14:35:00,48.3,47.2,29.77,West,272,1.0,3.0,96,0.00,,,0.83,Wunderground v.1.15,2013-12-14 19:35:00,
2013-12-14 14:36:00,48.3,47.2,29.77,West,272,2.0,3.0,96,0.00,,,0.83,Wunderground v.1.15,2013-12-14 19:36:00,
2013-12-14 14:38:00,48.3,47.2,29.77,West,272,0.0,3.0,96,0.00,,,0.83,Wunderground v.1.15,2013-12-14 19:38:00,
2013-12-14 14:39:00,48.3,47.2,29.77,West,272,0.0,3.0,96,0.00,,,0.83,Wunderground v.1.15,2013-12-14 19:39:00,
2013-12-14 14:40:00,48.3,47.2,29.77,West,272,0.0,1.0,96,0.00,,,0.83,Wunderground v.1.15,2013-12-14 19:40:00,
2013-12-14 14:41:00,48.3,47.2,29.77,West,272,0.0,1.0,96,0.00,,,0.83,Wunderground v.1.15,2013-12-14 19:41:00,
2013-12-14 14:43:00,48.3,47.2,29.77,West,272,0.0,1.0,96,0.00,,,0.83,Wunderground v.1.15,2013-12-14 19:43:00,
2013-12-14 14:44:00,48.3,47.2,29.77,West,272,0.0,1.0,96,0.00,,,0.83,Wunderground v.1.15,2013-12-14 19:44:00,
2013-12-14 14:45:00,48.3,47.2,29.77,West,272,0.0,1.0,96,0.00,,,0.83,Wunderground v.1.15,2013-12-14 19:45:00,
2013-12-14 14:46:00,48.3,47.2,29.77,West,272,0.0,1.0,96,0.00,,,0.83,Wunderground v.1.15,2013-12-14 19:46:00,
2013-12-14 14:48:00,48.3,47.2,29.77,West,272,0.0,1.0,96,0.00,,,0.83,Wunderground v.1.15,2013-12-14 19:48:00,
2013-12-14 14:49:00,48.4,47.3,29.77,West,272,0.0,1.0,96,0.00,,,0.83,Wunderground v.1.15,2013-12-14 19:49:00,
2013-12-14 14:51:00,48.4,47.3,29.77,West,259,0.0,0.0,96,0.00,,,0.83,Wunderground v.1.15,2013-12-14 19:51:00,
2013-12-14 14:52:00,48.4,47.3,29.77,West,273,0.0,0.0,96,0.00,,,0.83,Wunderground v.1.15,2013-12-14 19:52:00,
2013-12-14 14:53:00,48.4,47.3,29.77,West,273,0.0,1.0,96,0.00,,,0.83,Wunderground v.1.15,2013-12-14 19:53:00,
2013-12-14 14:56:00,48.5,47.4,29.77,West,274,0.0,1.0,96,0.00,,,0.83,Wunderground v.1.15,2013-12-14 19:56:00,
2013-12-14 14:58:00,48.5,47.4,29.77,West,274,0.0,1.0,96,0.00,,,0.83,Wunderground v.1.15,2013-12-14 19:58:00,
2013-12-14 14:59:00,48.5,47.4,29.77,West,274,0.0,0.0,96,0.00,,,0.83,Wunderground v.1.15,2013-12-14 19:59:00,
2013-12-14 15:01:00,48.5,47.4,29.77,West,274,0.0,0.0,96,0.00,,,0.83,Wunderground v.1.15,2013-12-14 20:01:00,
2013-12-14 15:03:00,48.5,47.4,29.77,West,274,0.0,0.0,96,0.00,,,0.83,Wunderground v.1.15,2013-12-14 20:03:00,
2013-12-14 15:04:00,48.5,47.4,29.77,West,274,0.0,0.0,96,0.00,,,0.83,Wunderground v.1.15,2013-12-14 20:04:00,
2013-12-14 15:05:00,48.5,47.4,29.77,West,273,0.0,0.0,96,0.00,,,0.83,Wunderground v.1.15,2013-12-14 20:05:00,
2013-12-14 15:06:00,48.5,47.4,29.77,West,273,0.0,0.0,96,0.00,,,0.83,Wunderground v.1.15,2013-12-14 20:06:00,
2013-12-14 15:08:00,48.6,47.5,29.77,West,273,0.0,1.0,96,0.00,,,0.83,Wunderground v.1.15,2013-12-14 20:08:00,
2013-12-14 15:09:00,48.6,47.5,29.77,West,273,1.0,1.0,96,0.00,,,0.83,Wunderground v.1.15,2013-12-14 20:09:00,
2013-12-14 15:11:00,48.7,47.6,29.77,West,273,0.0,0.0,96,0.00,,,0.83,Wunderground v.1.15,2013-12-14 20:11:00,
2013-12-14 15:12:00,48.7,47.6,29.77,West,273,0.0,0.0,96,0.00,,,0.83,Wunderground v.1.15,2013-12-14 20:12:00,
2013-12-14 15:14:00,48.7,47.6,29.77,West,273,0.0,0.0,96,0.00,,,0.83,Wunderground v.1.15,2013-12-14 20:14:00,
2013-12-14 15:16:00,48.7,47.6,29.77,West,274,0.0,0.0,96,0.00,,,0.83,Wunderground v.1.15,2013-12-14 20:16:00,
2013-12-14 15:17:00,48.8,47.7,29.77,West,274,0.0,0.0,96,0.00,,,0.83,Wunderground v.1.15,2013-12-14 20:17:00,
2013-12-14 15:19:00,48.8,47.7,29.77,West,274,0.0,0.0,96,0.00,,,0.83,Wunderground v.1.15,2013-12-14 20:19:00,
2013-12-14 15:20:00,48.8,47.7,29.77,West,274,0.0,0.0,96,0.00,,,0.83,Wunderground v.1.15,2013-12-14 20:20:00,
2013-12-14 15:22:00,48.9,47.8,29.77,West,274,1.0,1.0,96,0.00,,,0.83,Wunderground v.1.15,2013-12-14 20:22:00,
2013-12-14 15:23:00,48.9,47.8,29.77,West,273,0.0,1.0,96,0.00,,,0.83,Wunderground v.1.15,2013-12-14 20:23:00,
2013-12-14 15:24:00,48.9,47.8,29.77,West,273,0.0,1.0,96,0.00,,,0.83,Wunderground v.1.15,2013-12-14 20:24:00,
2013-12-14 15:25:00,49.0,47.9,29.77,West,273,0.0,1.0,96,0.00,,,0.83,Wunderground v.1.15,2013-12-14 20:25:00,
2013-12-14 15:27:00,49.0,47.9,29.77,West,274,0.0,1.0,96,0.00,,,0.83,Wunderground v.1.15,2013-12-14 20:27:00,
2013-12-14 15:28:00,49.0,47.9,29.77,West,273,0.0,1.0,96,0.00,,,0.83,Wunderground v.1.15,2013-12-14 20:28:00,
2013-12-14 15:30:00,49.0,47.9,29.77,West,274,0.0,0.0,96,0.00,,,0.83,Wunderground v.1.15,2013-12-14 20:30:00,
2013-12-14 15:32:00,49.0,47.9,29.77,West,273,1.0,1.0,96,0.00,,,0.83,Wunderground v.1.15,2013-12-14 20:32:00,
2013-12-14 15:33:00,49.0,47.9,29.77,West,273,0.0,1.0,96,0.00,,,0.83,Wunderground v.1.15,2013-12-14 20:33:00,
2013-12-14 15:36:00,49.0,47.9,29.77,West,274,0.0,1.0,96,0.00,,,0.83,Wunderground v.1.15,2013-12-14 20:36:00,
2013-12-14 15:37:00,49.0,47.9,29.77,West,274,0.0,1.0,96,0.00,,,0.83,Wunderground v.1.15,2013-12-14 20:37:00,
2013-12-14 15:38:00,49.0,47.9,29.77,West,274,0.0,1.0,96,0.00,,,0.83,Wunderground v.1.15,2013-12-14 20:38:00,
2013-12-14 15:40:00,49.0,47.9,29.77,West,274,0.0,0.0,96,0.00,,,0.83,Wunderground v.1.15,2013-12-14 20:40:00,
2013-12-14 15:41:00,49.0,47.9,29.77,West,274,0.0,1.0,96,0.00,,,0.83,Wunderground v.1.15,2013-12-14 20:41:00,
2013-12-14 15:42:00,49.0,47.9,29.77,West,274,0.0,1.0,96,0.00,,,0.83,Wunderground v.1.15,2013-12-14 20:42:00,
2013-12-14 15:43:00,49.1,48.0,29.77,West,274,0.0,1.0,96,0.00,,,0.83,Wunderground v.1.15,2013-12-14 20:43:00,
2013-12-14 15:44:00,49.1,48.0,29.77,West,273,0.0,1.0,96,0.00,,,0.83,Wunderground v.1.15,2013-12-14 20:44:00,
2013-12-14 15:46:00,49.1,48.0,29.77,West,274,0.0,1.0,96,0.00,,,0.83,Wunderground v.1.15,2013-12-14 20:46:00,
2013-12-14 15:47:00,49.1,48.0,29.77,West,274,0.0,1.0,96,0.00,,,0.83,Wunderground v.1.15,2013-12-14 20:47:00,
2013-12-14 15:48:00,49.1,48.0,29.77,West,273,0.0,1.0,96,0.00,,,0.83,Wunderground v.1.15,2013-12-14 20:48:00,
2013-12-14 15:49:00,49.1,48.0,29.77,West,274,0.0,1.0,96,0.00,,,0.83,Wunderground v.1.15,2013-12-14 20:49:00,
2013-12-14 15:51:00,49.1,48.0,29.77,West,274,0.0,1.0,96,0.00,,,0.83,Wunderground v.1.15,2013-12-14 20:51:00,
2013-12-14 15:52:00,49.2,48.1,29.77,West,274,0.0,1.0,96,0.00,,,0.83,Wunderground v.1.15,2013-12-14 20:52:00,
2013-12-14 15:53:00,49.1,48.0,29.77,West,274,0.0,1.0,96,0.00,,,0.83,Wunderground v.1.15,2013-12-14 20:53:00,
2013-12-14 15:55:00,49.2,48.1,29.77,West,273,0.0,1.0,96,0.00,,,0.83,Wunderground v.1.15,2013-12-14 20:55:00,
2013-12-14 15:57:00,49.1,48.0,29.77,West,274,0.0,1.0,96,0.00,,,0.83,Wunderground v.1.15,2013-12-14 20:57:00,
2013-12-14 15:58:00,49.2,48.1,29.77,West,274,0.0,1.0,96,0.00,,,0.83,Wunderground v.1.15,2013-12-14 20:58:00,
2013-12-14 16:01:00,49.2,48.1,29.77,West,273,0.0,0.0,96,0.00,,,0.83,Wunderground v.1.15,2013-12-14 21:01:00,
2013-12-14 16:02:00,49.2,48.1,29.77,West,274,0.0,0.0,96,0.00,,,0.83,Wunderground v.1.15,2013-12-14 21:02:00,
2013-12-14 16:03:00,49.2,48.1,29.77,West,274,0.0,0.0,96,0.00,,,0.83,Wunderground v.1.15,2013-12-14 21:03:00,
2013-12-14 16:07:00,49.2,48.1,29.76,West,273,0.0,0.0,96,0.00,,,0.83,Wunderground v.1.15,2013-12-14 21:07:00,
2013-12-14 16:08:00,49.2,48.1,29.77,West,273,0.0,0.0,96,0.00,,,0.83,Wunderground v.1.15,2013-12-14 21:08:00,
2013-12-14 16:09:00,49.2,48.1,29.77,West,274,0.0,0.0,96,0.00,,,0.83,Wunderground v.1.15,2013-12-14 21:09:00,
2013-12-14 16:12:00,49.3,48.2,29.77,West,274,0.0,0.0,96,0.00,,,0.83,Wunderground v.1.15,2013-12-14 21:12:00,
2013-12-14 16:13:00,49.3,48.2,29.77,West,274,0.0,0.0,96,0.00,,,0.83,Wunderground v.1.15,2013-12-14 21:13:00,
2013-12-14 16:14:00,49.4,48.3,29.77,West,273,0.0,0.0,96,0.00,,,0.83,Wunderground v.1.15,2013-12-14 21:14:00,
2013-12-14 16:17:00,49.4,48.3,29.77,West,274,0.0,0.0,96,0.00,,,0.83,Wunderground v.1.15,2013-12-14 21:17:00,
2013-12-14 16:18:00,49.4,48.3,29.77,West,274,0.0,0.0,96,0.00,,,0.83,Wunderground v.1.15,2013-12-14 21:18:00,
2013-12-14 16:19:00,49.4,48.3,29.76,West,274,0.0,0.0,96,0.00,,,0.83,Wunderground v.1.15,2013-12-14 21:19:00,
2013-12-14 16:22:00,49.5,48.4,29.77,West,274,0.0,0.0,96,0.00,,,0.83,Wunderground v.1.15,2013-12-14 21:22:00,
2013-12-14 16:23:00,49.5,48.4,29.77,West,274,0.0,0.0,96,0.00,,,0.83,Wunderground v.1.15,2013-12-14 21:23:00,
2013-12-14 16:24:00,49.5,48.4,29.77,West,274,0.0,0.0,96,0.00,,,0.83,Wunderground v.1.15,2013-12-14 21:24:00,
2013-12-14 16:28:00,49.6,48.5,29.77,West,274,0.0,0.0,96,0.00,,,0.83,Wunderground v.1.15,2013-12-14 21:28:00,
2013-12-14 16:29:00,49.6,48.5,29.77,West,274,0.0,0.0,96,0.00,,,0.83,Wunderground v.1.15,2013-12-14 21:29:00,
2013-12-14 16:30:00,49.6,48.5,29.77,West,274,0.0,0.0,96,0.00,,,0.83,Wunderground v.1.15,2013-12-14 21:30:00,
2013-12-14 16:34:00,49.6,48.5,29.77,West,274,0.0,0.0,96,0.00,,,0.83,Wunderground v.1.15,2013-12-14 21:34:00,
2013-12-14 16:35:00,49.6,48.5,29.77,West,274,0.0,0.0,96,0.00,,,0.83,Wunderground v.1.15,2013-12-14 21:35:00,
2013-12-14 16:39:00,49.7,48.6,29.77,West,273,0.0,0.0,96,0.00,,,0.83,Wunderground v.1.15,2013-12-14 21:39:00,
2013-12-14 16:40:00,49.7,48.6,29.77,West,273,0.0,0.0,96,0.00,,,0.83,Wunderground v.1.15,2013-12-14 21:40:00,
2013-12-14 16:41:00,49.7,48.6,29.77,West,273,0.0,0.0,96,0.00,,,0.83,Wunderground v.1.15,2013-12-14 21:41:00,
2013-12-14 16:44:00,49.7,48.6,29.77,West,273,0.0,0.0,96,0.00,,,0.83,Wunderground v.1.15,2013-12-14 21:44:00,
2013-12-14 16:45:00,49.7,48.6,29.77,West,274,0.0,0.0,96,0.00,,,0.83,Wunderground v.1.15,2013-12-14 21:45:00,
2013-12-14 16:46:00,49.7,48.6,29.77,West,274,0.0,0.0,96,0.00,,,0.83,Wunderground v.1.15,2013-12-14 21:46:00,
2013-12-14 16:49:00,49.7,48.6,29.77,West,274,0.0,0.0,96,0.00,,,0.83,Wunderground v.1.15,2013-12-14 21:49:00,
2013-12-14 16:50:00,49.7,48.6,29.77,West,274,0.0,0.0,96,0.00,,,0.83,Wunderground v.1.15,2013-12-14 21:50:00,
2013-12-14 16:51:00,49.7,48.6,29.77,West,273,0.0,0.0,96,0.00,,,0.83,Wunderground v.1.15,2013-12-14 21:51:00,
2013-12-14 16:52:00,49.7,48.6,29.77,West,274,0.0,0.0,96,0.00,,,0.83,Wunderground v.1.15,2013-12-14 21:52:00,
2013-12-14 16:54:00,49.7,48.6,29.77,West,274,0.0,0.0,96,0.00,,,0.83,Wunderground v.1.15,2013-12-14 21:54:00,
2013-12-14 16:55:00,49.7,48.6,29.77,West,273,0.0,0.0,96,0.00,,,0.83,Wunderground v.1.15,2013-12-14 21:55:00,
2013-12-14 16:56:00,49.7,48.6,29.77,West,273,0.0,0.0,96,0.00,,,0.83,Wunderground v.1.15,2013-12-14 21:56:00,
2013-12-14 16:57:00,49.7,48.6,29.77,West,273,0.0,0.0,96,0.00,,,0.83,Wunderground v.1.15,2013-12-14 21:57:00,
2013-12-14 17:00:00,49.7,48.6,29.77,West,274,0.0,0.0,96,0.00,,,0.83,Wunderground v.1.15,2013-12-14 22:00:00,
2013-12-14 17:01:00,49.7,48.6,29.77,West,273,0.0,1.0,96,0.00,,,0.83,Wunderground v.1.15,2013-12-14 22:01:00,
2013-12-14 17:02:00,49.7,48.6,29.77,West,274,0.0,1.0,96,0.00,,,0.83,Wunderground v.1.15,2013-12-14 22:02:00,
2013-12-14 17:05:00,49.6,48.5,29.77,West,273,0.0,1.0,96,0.00,,,0.83,Wunderground v.1.15,2013-12-14 22:05:00,
2013-12-14 17:06:00,49.7,48.6,29.77,West,273,0.0,1.0,96,0.00,,,0.83,Wunderground v.1.15,2013-12-14 22:06:00,
2013-12-14 17:08:00,49.7,48.6,29.77,West,274,0.0,1.0,96,0.00,,,0.83,Wunderground v.1.15,2013-12-14 22:08:00,
2013-12-14 17:10:00,49.7,48.6,29.77,West,273,0.0,0.0,96,0.00,,,0.83,Wunderground v.1.15,2013-12-14 22:10:00,
2013-12-14 17:11:00,49.6,48.5,29.77,West,273,0.0,0.0,96,0.00,,,0.83,Wunderground v.1.15,2013-12-14 22:11:00,
2013-12-14 17:15:00,49.7,48.6,29.78,West,273,0.0,0.0,96,0.00,,,0.83,Wunderground v.1.15,2013-12-14 22:15:00,
2013-12-14 17:16:00,49.7,48.6,29.78,West,274,0.0,0.0,96,0.00,,,0.83,Wunderground v.1.15,2013-12-14 22:16:00,
2013-12-14 17:17:00,49.7,48.6,29.78,West,274,0.0,0.0,96,0.00,,,0.83,Wunderground v.1.15,2013-12-14 22:17:00,
2013-12-14 17:20:00,49.7,48.6,29.78,West,274,0.0,0.0,96,0.00,,,0.83,Wunderground v.1.15,2013-12-14 22:20:00,
2013-12-14 17:21:00,49.6,48.5,29.78,West,274,0.0,0.0,96,0.00,,,0.83,Wunderground v.1.15,2013-12-14 22:21:00,
2013-12-14 17:22:00,49.6,48.5,29.78,West,274,0.0,0.0,96,0.00,,,0.83,Wunderground v.1.15,2013-12-14 22:22:00,
2013-12-14 17:23:00,49.6,48.5,29.78,West,274,1.0,1.0,96,0.00,,,0.83,Wunderground v.1.15,2013-12-14 22:23:00,
2013-12-14 17:25:00,49.6,48.5,29.78,West,273,0.0,1.0,96,0.00,,,0.83,Wunderground v.1.15,2013-12-14 22:25:00,
2013-12-14 17:26:00,49.6,48.5,29.78,West,273,0.0,1.0,96,0.00,,,0.83,Wunderground v.1.15,2013-12-14 22:26:00,
2013-12-14 17:27:00,49.6,48.5,29.78,West,273,0.0,1.0,96,0.00,,,0.83,Wunderground v.1.15,2013-12-14 22:27:00,
2013-12-14 17:28:00,49.6,48.5,29.78,West,273,0.0,1.0,96,0.00,,,0.83,Wunderground v.1.15,2013-12-14 22:28:00,
2013-12-14 17:30:00,49.6,48.5,29.78,West,273,0.0,0.0,96,0.00,,,0.83,Wunderground v.1.15,2013-12-14 22:30:00,
2013-12-14 17:31:00,49.6,48.5,29.78,West,274,0.0,0.0,96,0.00,,,0.83,Wunderground v.1.15,2013-12-14 22:31:00,
2013-12-14 17:32:00,49.6,48.5,29.78,West,274,0.0,0.0,96,0.00,,,0.83,Wunderground v.1.15,2013-12-14 22:32:00,
2013-12-14 17:33:00,49.6,48.5,29.78,West,274,0.0,0.0,96,0.00,,,0.83,Wunderground v.1.15,2013-12-14 22:33:00,
2013-12-14 17:35:00,49.6,48.5,29.78,West,273,0.0,0.0,96,0.00,,,0.83,Wunderground v.1.15,2013-12-14 22:35:00,
2013-12-14 17:36:00,49.6,48.5,29.78,West,273,0.0,1.0,96,0.00,,,0.83,Wunderground v.1.15,2013-12-14 22:36:00,
2013-12-14 17:37:00,49.6,48.5,29.78,West,274,0.0,1.0,96,0.00,,,0.83,Wunderground v.1.15,2013-12-14 22:37:00,
2013-12-14 17:38:00,49.6,48.5,29.78,West,273,0.0,1.0,96,0.00,,,0.83,Wunderground v.1.15,2013-12-14 22:38:00,
2013-12-14 17:40:00,49.6,48.5,29.78,West,274,0.0,0.0,96,0.00,,,0.83,Wunderground v.1.15,2013-12-14 22:40:00,
2013-12-14 17:42:00,49.6,48.5,29.78,West,274,0.0,0.0,96,0.00,,,0.83,Wunderground v.1.15,2013-12-14 22:42:00,
2013-12-14 17:43:00,49.6,48.5,29.78,West,273,0.0,0.0,96,0.00,,,0.83,Wunderground v.1.15,2013-12-14 22:43:00,
2013-12-14 17:44:00,49.6,48.5,29.78,West,273,0.0,0.0,96,0.00,,,0.83,Wunderground v.1.15,2013-12-14 22:44:00,
2013-12-14 17:45:00,49.6,48.5,29.78,West,273,0.0,0.0,96,0.00,,,0.83,Wunderground v.1.15,2013-12-14 22:45:00,
2013-12-14 17:47:00,49.6,48.5,29.78,West,274,0.0,0.0,96,0.00,,,0.83,Wunderground v.1.15,2013-12-14 22:47:00,
2013-12-14 17:48:00,49.6,48.5,29.78,West,273,0.0,0.0,96,0.00,,,0.83,Wunderground v.1.15,2013-12-14 22:48:00,
2013-12-14 17:49:00,49.6,48.5,29.79,West,273,0.0,0.0,96,0.00,,,0.83,Wunderground v.1.15,2013-12-14 22:49:00,
2013-12-14 17:51:00,49.6,48.5,29.79,West,274,0.0,0.0,96,0.00,,,0.83,Wunderground v.1.15,2013-12-14 22:51:00,
2013-12-14 17:52:00,49.6,48.5,29.79,West,273,0.0,0.0,96,0.00,,,0.83,Wunderground v.1.15,2013-12-14 22:52:00,
2013-12-14 17:53:00,49.6,48.5,29.79,West,274,0.0,0.0,96,0.00,,,0.83,Wunderground v.1.15,2013-12-14 22:53:00,
2013-12-14 17:54:00,49.6,48.5,29.78,West,274,0.0,0.0,96,0.00,,,0.83,Wunderground v.1.15,2013-12-14 22:54:00,
2013-12-14 17:56:00,49.6,48.5,29.79,West,274,0.0,0.0,96,0.00,,,0.83,Wunderground v.1.15,2013-12-14 22:56:00,
2013-12-14 17:57:00,49.6,48.5,29.79,West,273,0.0,0.0,96,0.00,,,0.83,Wunderground v.1.15,2013-12-14 22:57:00,
2013-12-14 17:58:00,49.6,48.5,29.79,West,274,0.0,0.0,96,0.00,,,0.83,Wunderground v.1.15,2013-12-14 22:58:00,
2013-12-14 17:59:00,49.7,48.6,29.79,West,274,0.0,0.0,96,0.00,,,0.83,Wunderground v.1.15,2013-12-14 22:59:00,
2013-12-14 18:00:00,49.6,48.5,29.79,West,274,0.0,0.0,96,0.00,,,0.83,Wunderground v.1.15,2013-12-14 23:00:00,
2013-12-14 18:02:00,49.6,48.5,29.79,West,273,0.0,0.0,96,0.00,,,0.83,Wunderground v.1.15,2013-12-14 23:02:00,
2013-12-14 18:03:00,49.7,48.6,29.79,West,273,0.0,0.0,96,0.00,,,0.83,Wunderground v.1.15,2013-12-14 23:03:00,
2013-12-14 18:05:00,49.7,48.6,29.79,West,273,0.0,0.0,96,0.00,,,0.83,Wunderground v.1.15,2013-12-14 23:05:00,
2013-12-14 18:06:00,49.6,48.5,29.79,West,273,0.0,0.0,96,0.00,,,0.83,Wunderground v.1.15,2013-12-14 23:06:00,
2013-12-14 18:07:00,49.6,48.5,29.79,West,274,0.0,0.0,96,0.00,,,0.83,Wunderground v.1.15,2013-12-14 23:07:00,
2013-12-14 18:08:00,49.6,48.5,29.79,West,274,0.0,0.0,96,0.00,,,0.83,Wunderground v.1.15,2013-12-14 23:08:00,
2013-12-14 18:10:00,49.6,48.5,29.79,West,273,0.0,0.0,96,0.00,,,0.83,Wunderground v.1.15,2013-12-14 23:10:00,
2013-12-14 18:11:00,49.6,48.5,29.79,West,274,0.0,0.0,96,0.00,,,0.83,Wunderground v.1.15,2013-12-14 23:11:00,
2013-12-14 18:12:00,49.6,48.5,29.79,West,274,0.0,1.0,96,0.00,,,0.83,Wunderground v.1.15,2013-12-14 23:12:00,
2013-12-14 18:14:00,49.6,48.5,29.79,West,274,0.0,1.0,96,0.00,,,0.83,Wunderground v.1.15,2013-12-14 23:14:00,
2013-12-14 18:15:00,49.6,48.5,29.79,West,273,0.0,1.0,96,0.00,,,0.83,Wunderground v.1.15,2013-12-14 23:15:00,
2013-12-14 18:17:00,49.6,48.5,29.79,West,274,0.0,1.0,96,0.00,,,0.83,Wunderground v.1.15,2013-12-14 23:17:00,
2013-12-14 18:18:00,49.6,48.5,29.79,West,274,0.0,1.0,96,0.00,,,0.83,Wunderground v.1.15,2013-12-14 23:18:00,
2013-12-14 18:19:00,49.5,48.4,29.79,West,274,0.0,1.0,96,0.00,,,0.83,Wunderground v.1.15,2013-12-14 23:19:00,
2013-12-14 18:20:00,49.5,48.4,29.79,West,274,0.0,0.0,96,0.00,,,0.83,Wunderground v.1.15,2013-12-14 23:20:00,
2013-12-14 18:22:00,49.5,48.4,29.79,West,274,0.0,0.0,96,0.00,,,0.83,Wunderground v.1.15,2013-12-14 23:22:00,
2013-12-14 18:24:00,49.5,48.4,29.78,West,273,0.0,0.0,96,0.00,,,0.83,Wunderground v.1.15,2013-12-14 23:24:00,
2013-12-14 18:25:00,49.5,48.4,29.79,West,273,0.0,0.0,96,0.00,,,0.83,Wunderground v.1.15,2013-12-14 23:25:00,
2013-12-14 18:27:00,49.5,48.4,29.79,West,274,0.0,0.0,96,0.00,,,0.83,Wunderground v.1.15,2013-12-14 23:27:00,
2013-12-14 18:29:00,49.5,48.4,29.79,West,274,0.0,0.0,96,0.00,,,0.83,Wunderground v.1.15,2013-12-14 23:29:00,
2013-12-14 18:30:00,49.5,48.4,29.79,West,274,0.0,0.0,96,0.00,,,0.83,Wunderground v.1.15,2013-12-14 23:30:00,
2013-12-14 18:31:00,49.4,48.3,29.79,West,274,0.0,0.0,96,0.00,,,0.83,Wunderground v.1.15,2013-12-14 23:31:00,
2013-12-14 18:32:00,49.4,48.3,29.79,West,274,0.0,0.0,96,0.00,,,0.83,Wunderground v.1.15,2013-12-14 23:32:00,
2013-12-14 18:33:00,49.4,48.3,29.79,West,274,0.0,0.0,96,0.00,,,0.83,Wunderground v.1.15,2013-12-14 23:33:00,
2013-12-14 18:34:00,49.5,48.4,29.79,West,273,0.0,0.0,96,0.00,,,0.83,Wunderground v.1.15,2013-12-14 23:34:00,
2013-12-14 18:35:00,49.4,48.3,29.79,West,274,0.0,0.0,96,0.00,,,0.83,Wunderground v.1.15,2013-12-14 23:35:00,
2013-12-14 18:37:00,49.4,48.3,29.78,West,274,0.0,0.0,96,0.00,,,0.83,Wunderground v.1.15,2013-12-14 23:37:00,
2013-12-14 18:39:00,49.5,48.4,29.78,West,274,0.0,0.0,96,0.00,,,0.83,Wunderground v.1.15,2013-12-14 23:39:00,
2013-12-14 18:40:00,49.5,48.4,29.78,West,274,0.0,0.0,96,0.00,,,0.83,Wunderground v.1.15,2013-12-14 23:40:00,
2013-12-14 18:41:00,49.5,48.4,29.78,West,273,0.0,0.0,96,0.00,,,0.83,Wunderground v.1.15,2013-12-14 23:41:00,
2013-12-14 18:42:00,49.5,48.4,29.78,West,273,0.0,0.0,96,0.00,,,0.83,Wunderground v.1.15,2013-12-14 23:42:00,
2013-12-14 18:44:00,49.5,48.4,29.78,West,273,0.0,0.0,96,0.00,,,0.83,Wunderground v.1.15,2013-12-14 23:44:00,
2013-12-14 18:45:00,49.5,48.4,29.78,West,274,1.0,1.0,96,0.00,,,0.83,Wunderground v.1.15,2013-12-14 23:45:00,
2013-12-14 18:46:00,49.6,48.5,29.78,West,273,1.0,1.0,96,0.00,,,0.83,Wunderground v.1.15,2013-12-14 23:46:00,
2013-12-14 18:48:00,49.6,48.8,29.79,West,274,0.0,1.0,97,0.00,,,0.83,Wunderground v.1.15,2013-12-14 23:48:00,
2013-12-14 18:50:00,49.6,48.8,29.78,West,274,0.0,0.0,97,0.00,,,0.83,Wunderground v.1.15,2013-12-14 23:50:00,
2013-12-14 18:51:00,49.7,48.9,29.78,West,274,0.0,1.0,97,0.00,,,0.83,Wunderground v.1.15,2013-12-14 23:51:00,
2013-12-14 18:52:00,49.7,48.9,29.78,West,274,0.0,1.0,97,0.00,,,0.83,Wunderground v.1.15,2013-12-14 23:52:00,
2013-12-14 18:53:00,49.7,48.6,29.78,West,273,0.0,1.0,96,0.00,,,0.83,Wunderground v.1.15,2013-12-14 23:53:00,
2013-12-14 18:55:00,49.7,48.6,29.78,West,273,0.0,1.0,96,0.00,,,0.83,Wunderground v.1.15,2013-12-14 23:55:00,
2013-12-14 18:56:00,49.7,48.6,29.78,West,274,0.0,1.0,96,0.00,,,0.83,Wunderground v.1.15,2013-12-14 23:56:00,
2013-12-14 18:58:00,49.7,48.6,29.78,West,273,0.0,1.0,96,0.00,,,0.83,Wunderground v.1.15,2013-12-14 23:58:00,
2013-12-14 18:59:00,49.7,48.6,29.78,West,273,0.0,1.0,96,0.00,,,0.83,Wunderground v.1.15,2013-12-14 23:59:00,
2013-12-14 19:00:00,49.7,48.6,29.78,West,274,0.0,0.0,96,0.00,,,0.83,Wunderground v.1.15,2013-12-15 00:00:00,
2013-12-14 19:01:00,49.8,48.7,29.78,West,274,0.0,0.0,96,0.00,,,0.83,Wunderground v.1.15,2013-12-15 00:01:00,
2013-12-14 19:02:00,49.8,48.7,29.78,West,274,0.0,0.0,96,0.00,,,0.83,Wunderground v.1.15,2013-12-15 00:02:00,
2013-12-14 19:04:00,49.8,48.7,29.78,West,273,0.0,1.0,96,0.00,,,0.83,Wunderground v.1.15,2013-12-15 00:04:00,
2013-12-14 19:05:00,49.8,49.0,29.78,West,274,0.0,1.0,97,0.00,,,0.83,Wunderground v.1.15,2013-12-15 00:05:00,
2013-12-14 19:06:00,49.8,49.0,29.78,West,273,0.0,1.0,97,0.00,,,0.83,Wunderground v.1.15,2013-12-15 00:06:00,
2013-12-14 19:07:00,49.8,49.0,29.78,West,274,0.0,1.0,97,0.00,,,0.83,Wunderground v.1.15,2013-12-15 00:07:00,
2013-12-14 19:09:00,49.9,49.1,29.79,West,273,0.0,1.0,97,0.00,,,0.83,Wunderground v.1.15,2013-12-15 00:09:00,
2013-12-14 19:10:00,49.9,49.1,29.80,West,274,0.0,0.0,97,0.00,,,0.83,Wunderground v.1.15,2013-12-15 00:10:00,
2013-12-14 19:11:00,49.9,49.1,29.80,West,274,0.0,0.0,97,0.00,,,0.83,Wunderground v.1.15,2013-12-15 00:11:00,
2013-12-14 19:12:00,49.9,49.1,29.80,West,274,0.0,0.0,97,0.00,,,0.83,Wunderground v.1.15,2013-12-15 00:12:00,
2013-12-14 19:14:00,49.9,48.8,29.81,West,274,0.0,1.0,96,0.00,,,0.83,Wunderground v.1.15,2013-12-15 00:14:00,
2013-12-14 19:15:00,49.8,48.7,29.81,West,274,0.0,1.0,96,0.00,,,0.83,Wunderground v.1.15,2013-12-15 00:15:00,
2013-12-14 19:16:00,49.8,48.7,29.81,West,274,0.0,1.0,96,0.00,,,0.83,Wunderground v.1.15,2013-12-15 00:16:00,
2013-12-14 19:17:00,49.8,48.7,29.81,West,273,0.0,1.0,96,0.00,,,0.83,Wunderground v.1.15,2013-12-15 00:17:00,
2013-12-14 19:19:00,49.7,48.6,29.81,West,273,1.0,1.0,96,0.00,,,0.83,Wunderground v.1.15,2013-12-15 00:19:00,
2013-12-14 19:20:00,49.7,48.6,29.81,West,273,0.0,1.0,96,0.00,,,0.83,Wunderground v.1.15,2013-12-15 00:20:00,
2013-12-14 19:22:00,49.6,48.5,29.81,West,274,0.0,1.0,96,0.00,,,0.83,Wunderground v.1.15,2013-12-15 00:22:00,
2013-12-14 19:24:00,49.5,48.4,29.80,West,273,0.0,1.0,96,0.00,,,0.83,Wunderground v.1.15,2013-12-15 00:24:00,
2013-12-14 19:25:00,49.5,48.4,29.80,West,274,0.0,1.0,96,0.00,,,0.83,Wunderground v.1.15,2013-12-15 00:25:00,
2013-12-14 19:26:00,49.5,48.4,29.80,West,274,0.0,1.0,96,0.00,,,0.83,Wunderground v.1.15,2013-12-15 00:26:00,
2013-12-14 19:27:00,49.4,48.3,29.80,West,274,0.0,2.0,96,0.00,,,0.83,Wunderground v.1.15,2013-12-15 00:27:00,
2013-12-14 19:30:00,49.5,48.7,29.80,West,274,0.0,1.0,97,0.00,,,0.83,Wunderground v.1.15,2013-12-15 00:30:00,
2013-12-14 19:31:00,49.5,48.7,29.80,West,273,1.0,2.0,97,0.00,,,0.83,Wunderground v.1.15,2013-12-15 00:31:00,
2013-12-14 19:32:00,49.6,48.8,29.81,West,268,1.0,3.0,97,0.00,,,0.83,Wunderground v.1.15,2013-12-15 00:32:00,
2013-12-14 19:33:00,49.6,48.8,29.81,West,268,1.0,3.0,97,0.00,,,0.83,Wunderground v.1.15,2013-12-15 00:33:00,
2013-12-14 19:35:00,49.8,49.0,29.81,West,268,1.0,3.0,97,0.00,,,0.83,Wunderground v.1.15,2013-12-15 00:35:00,
2013-12-14 19:36:00,49.9,49.1,29.80,WSW,258,2.0,5.0,97,0.00,,,0.83,Wunderground v.1.15,2013-12-15 00:36:00,
2013-12-14 19:37:00,50.2,49.4,29.80,WSW,252,3.0,5.0,97,0.00,,,0.83,Wunderground v.1.15,2013-12-15 00:37:00,
2013-12-14 19:38:00,50.3,49.5,29.80,WSW,252,2.0,5.0,97,0.00,,,0.83,Wunderground v.1.15,2013-12-15 00:38:00,
2013-12-14 19:41:00,50.7,49.9,29.81,SW,230,4.0,4.0,97,0.00,,,0.83,Wunderground v.1.15,2013-12-15 00:41:00,
2013-12-14 19:42:00,50.9,50.1,29.81,SW,230,3.0,4.0,97,0.00,,,0.83,Wunderground v.1.15,2013-12-15 00:42:00,
2013-12-14 19:44:00,51.0,50.2,29.81,SW,229,2.0,5.0,97,0.00,,,0.83,Wunderground v.1.15,2013-12-15 00:44:00,
2013-12-14 19:46:00,51.1,50.3,29.82,SW,230,2.0,5.0,97,0.00,,,0.83,Wunderground v.1.15,2013-12-15 00:46:00,
2013-12-14 19:47:00,51.1,50.3,29.82,WSW,248,1.0,5.0,97,0.00,,,0.83,Wunderground v.1.15,2013-12-15 00:47:00,
2013-12-14 19:49:00,51.1,50.3,29.82,WSW,250,4.0,5.0,97,0.00,,,0.83,Wunderground v.1.15,2013-12-15 00:49:00,
2013-12-14 19:51:00,51.2,50.4,29.83,SW,236,5.0,9.0,97,0.00,,,0.83,Wunderground v.1.15,2013-12-15 00:51:00,
2013-12-14 19:52:00,51.2,50.4,29.83,WSW,244,1.0,9.0,97,0.00,,,0.83,Wunderground v.1.15,2013-12-15 00:52:00,
2013-12-14 19:55:00,51.4,50.6,29.82,SW,225,2.0,9.0,97,0.00,,,0.83,Wunderground v.1.15,2013-12-15 00:55:00,
2013-12-14 19:56:00,51.4,50.6,29.82,SW,225,1.0,9.0,97,0.00,,,0.83,Wunderground v.1.15,2013-12-15 00:56:00,
2013-12-14 19:57:00,51.5,50.7,29.82,SW,223,2.0,9.0,97,0.00,,,0.83,Wunderground v.1.15,2013-12-15 00:57:00,
2013-12-14 19:58:00,51.5,50.7,29.82,SW,225,4.0,9.0,97,0.00,,,0.83,Wunderground v.1.15,2013-12-15 00:58:00,
2013-12-14 20:00:00,51.6,50.8,29.82,SW,225,3.0,5.0,97,0.00,,,0.83,Wunderground v.1.15,2013-12-15 01:00:00,
2013-12-14 20:01:00,51.6,50.8,29.82,SW,225,3.0,5.0,97,0.00,,,0.83,Wunderground v.1.15,2013-12-15 01:01:00,
2013-12-14 20:02:00,51.7,50.9,29.82,SW,225,5.0,5.0,97,0.00,,,0.83,Wunderground v.1.15,2013-12-15 01:02:00,
2013-12-14 20:03:00,51.7,50.9,29.82,SW,234,4.0,5.0,97,0.00,,,0.83,Wunderground v.1.15,2013-12-15 01:03:00,
2013-12-14 20:05:00,51.8,51.0,29.82,SW,234,0.0,5.0,97,0.00,,,0.83,Wunderground v.1.15,2013-12-15 01:05:00,
2013-12-14 20:07:00,51.8,51.0,29.82,SW,234,1.0,5.0,97,0.00,,,0.83,Wunderground v.1.15,2013-12-15 01:07:00,
2013-12-14 20:08:00,51.7,50.9,29.82,SW,234,0.0,5.0,97,0.00,,,0.83,Wunderground v.1.15,2013-12-15 01:08:00,
2013-12-14 20:10:00,51.8,51.0,29.81,SW,234,2.0,4.0,97,0.00,,,0.83,Wunderground v.1.15,2013-12-15 01:10:00,
2013-12-14 20:12:00,51.8,51.0,29.80,SW,234,1.0,4.0,97,0.00,,,0.83,Wunderground v.1.15,2013-12-15 01:12:00,
2013-12-14 20:13:00,51.8,51.0,29.80,SW,234,1.0,4.0,97,0.00,,,0.83,Wunderground v.1.15,2013-12-15 01:13:00,
2013-12-14 20:14:00,51.8,51.0,29.80,SW,234,1.0,4.0,97,0.00,,,0.83,Wunderground v.1.15,2013-12-15 01:14:00,
2013-12-14 20:15:00,51.8,51.0,29.79,West,265,4.0,5.0,97,0.00,,,0.83,Wunderground v.1.15,2013-12-15 01:15:00,
2013-12-14 20:18:00,51.9,51.1,29.79,West,265,0.0,5.0,97,0.00,,,0.83,Wunderground v.1.15,2013-12-15 01:18:00,
2013-12-14 20:19:00,51.9,51.1,29.79,West,265,0.0,5.0,97,0.00,,,0.83,Wunderground v.1.15,2013-12-15 01:19:00,
2013-12-14 20:20:00,51.9,51.1,29.80,West,265,3.0,3.0,97,0.00,,,0.83,Wunderground v.1.15,2013-12-15 01:20:00,
2013-12-14 20:24:00,51.8,51.0,29.80,West,265,1.0,3.0,97,0.00,,,0.83,Wunderground v.1.15,2013-12-15 01:24:00,
2013-12-14 20:25:00,51.8,51.0,29.79,West,265,1.0,4.0,97,0.00,,,0.83,Wunderground v.1.15,2013-12-15 01:25:00,
2013-12-14 20:26:00,51.8,51.0,29.79,West,265,0.0,4.0,97,0.00,,,0.83,Wunderground v.1.15,2013-12-15 01:26:00,
2013-12-14 20:29:00,51.8,51.0,29.78,West,265,0.0,4.0,97,0.00,,,0.83,Wunderground v.1.15,2013-12-15 01:29:00,
2013-12-14 20:30:00,51.8,51.0,29.79,West,265,0.0,1.0,97,0.00,,,0.83,Wunderground v.1.15,2013-12-15 01:30:00,
2013-12-14 20:31:00,51.8,51.0,29.79,West,265,0.0,2.0,97,0.00,,,0.83,Wunderground v.1.15,2013-12-15 01:31:00,
2013-12-14 20:34:00,51.7,50.9,29.79,West,265,0.0,2.0,97,0.00,,,0.83,Wunderground v.1.15,2013-12-15 01:34:00,
2013-12-14 20:35:00,51.7,50.9,29.79,West,265,0.0,2.0,97,0.00,,,0.83,Wunderground v.1.15,2013-12-15 01:35:00,
2013-12-14 20:37:00,51.7,50.9,29.79,West,265,1.0,3.0,97,0.00,,,0.83,Wunderground v.1.15,2013-12-15 01:37:00,
2013-12-14 20:39:00,51.7,50.9,29.80,West,265,0.0,3.0,97,0.00,,,0.83,Wunderground v.1.15,2013-12-15 01:39:00,
2013-12-14 20:40:00,51.7,50.9,29.80,West,265,1.0,1.0,97,0.00,,,0.83,Wunderground v.1.15,2013-12-15 01:40:00,
2013-12-14 20:41:00,51.7,50.9,29.80,West,265,2.0,3.0,97,0.00,,,0.83,Wunderground v.1.15,2013-12-15 01:41:00,
2013-12-14 20:42:00,51.7,50.9,29.80,West,265,0.0,3.0,97,0.00,,,0.83,Wunderground v.1.15,2013-12-15 01:42:00,
2013-12-14 20:45:00,51.7,50.9,29.80,WSW,255,0.0,5.0,97,0.00,,,0.83,Wunderground v.1.15,2013-12-15 01:45:00,
2013-12-14 20:46:00,51.7,50.9,29.80,WSW,254,1.0,5.0,97,0.00,,,0.83,Wunderground v.1.15,2013-12-15 01:46:00,
2013-12-14 20:47:00,51.7,50.9,29.80,WSW,255,0.0,5.0,97,0.00,,,0.83,Wunderground v.1.15,2013-12-15 01:47:00,
2013-12-14 20:50:00,51.7,50.9,29.79,WSW,255,1.0,1.0,97,0.00,,,0.83,Wunderground v.1.15,2013-12-15 01:50:00,
2013-12-14 20:51:00,51.8,51.0,29.78,WSW,255,0.0,2.0,97,0.00,,,0.83,Wunderground v.1.15,2013-12-15 01:51:00,
2013-12-14 20:52:00,51.8,51.0,29.79,WSW,255,2.0,2.0,97,0.00,,,0.83,Wunderground v.1.15,2013-12-15 01:52:00,
2013-12-14 20:55:00,51.8,51.0,29.81,WSW,255,2.0,3.0,97,0.00,,,0.83,Wunderground v.1.15,2013-12-15 01:55:00,
2013-12-14 20:56:00,51.8,51.0,29.81,WSW,255,2.0,3.0,97,0.00,,,0.83,Wunderground v.1.15,2013-12-15 01:56:00,
2013-12-14 20:57:00,51.8,51.0,29.81,WSW,255,0.0,3.0,97,0.00,,,0.83,Wunderground v.1.15,2013-12-15 01:57:00,
2013-12-14 21:00:00,51.8,51.0,29.80,SW,223,5.0,7.0,97,0.00,,,0.83,Wunderground v.1.15,2013-12-15 02:00:00,
2013-12-14 21:01:00,51.9,51.1,29.80,WSW,250,2.0,7.0,97,0.00,,,0.83,Wunderground v.1.15,2013-12-15 02:01:00,
2013-12-14 21:02:00,51.9,51.1,29.80,West,265,4.0,7.0,97,0.00,,,0.83,Wunderground v.1.15,2013-12-15 02:02:00,
2013-12-14 21:03:00,51.9,51.1,29.80,West,264,3.0,7.0,97,0.00,,,0.83,Wunderground v.1.15,2013-12-15 02:03:00,
2013-12-14 21:05:00,51.9,51.1,29.80,SW,228,2.0,10.0,97,0.00,,,0.83,Wunderground v.1.15,2013-12-15 02:05:00,
2013-12-14 21:06:00,51.9,51.1,29.80,SW,228,2.0,10.0,97,0.00,,,0.83,Wunderground v.1.15,2013-12-15 02:06:00,
2013-12-14 21:08:00,52.0,51.2,29.80,SW,228,0.0,10.0,97,0.00,,,0.83,Wunderground v.1.15,2013-12-15 02:08:00,
2013-12-14 21:09:00,51.9,51.1,29.80,SW,228,0.0,10.0,97,0.00,,,0.83,Wunderground v.1.15,2013-12-15 02:09:00,
2013-12-14 21:10:00,51.9,51.1,29.80,SW,228,1.0,3.0,97,0.00,,,0.83,Wunderground v.1.15,2013-12-15 02:10:00,
2013-12-14 21:13:00,51.9,51.1,29.80,SW,228,0.0,3.0,97,0.00,,,0.83,Wunderground v.1.15,2013-12-15 02:13:00,
2013-12-14 21:14:00,51.9,51.1,29.81,SW,227,2.0,4.0,97,0.00,,,0.83,Wunderground v.1.15,2013-12-15 02:14:00,
2013-12-14 21:15:00,51.9,51.1,29.80,SW,228,4.0,6.0,97,0.00,,,0.83,Wunderground v.1.15,2013-12-15 02:15:00,
2013-12-14 21:18:00,51.9,51.1,29.81,SW,228,4.0,6.0,97,0.00,,,0.83,Wunderground v.1.15,2013-12-15 02:18:00,
2013-12-14 21:19:00,51.9,51.1,29.81,SW,232,4.0,6.0,97,0.00,,,0.83,Wunderground v.1.15,2013-12-15 02:19:00,
2013-12-14 21:20:00,52.0,51.2,29.81,SW,235,2.0,4.0,97,0.00,,,0.83,Wunderground v.1.15,2013-12-15 02:20:00,
2013-12-14 21:23:00,52.0,51.2,29.81,SW,221,3.0,8.0,97,0.00,,,0.83,Wunderground v.1.15,2013-12-15 02:23:00,
2013-12-14 21:24:00,51.9,51.1,29.81,SW,221,0.0,8.0,97,0.00,,,0.83,Wunderground v.1.15,2013-12-15 02:24:00,
2013-12-14 21:26:00,51.9,51.1,29.81,West,261,3.0,8.0,97,0.00,,,0.83,Wunderground v.1.15,2013-12-15 02:26:00,
2013-12-14 21:28:00,51.9,51.1,29.81,SW,229,4.0,8.0,97,0.00,,,0.83,Wunderground v.1.15,2013-12-15 02:28:00,
2013-12-14 21:29:00,51.9,51.1,29.81,SW,236,0.0,8.0,97,0.00,,,0.83,Wunderground v.1.15,2013-12-15 02:29:00,
2013-12-14 21:30:00,51.9,51.1,29.81,SW,236,0.0,3.0,97,0.00,,,0.83,Wunderground v.1.15,2013-12-15 02:30:00,
2013-12-14 21:31:00,51.9,51.1,29.81,SW,236,4.0,4.0,97,0.00,,,0.83,Wunderground v.1.15,2013-12-15 02:31:00,
2013-12-14 21:33:00,51.9,51.1,29.80,West,259,0.0,7.0,97,0.00,,,0.83,Wunderground v.1.15,2013-12-15 02:33:00,
2013-12-14 21:34:00,51.9,51.1,29.79,West,259,2.0,7.0,97,0.00,,,0.83,Wunderground v.1.15,2013-12-15 02:34:00,
2013-12-14 21:35:00,51.9,51.1,29.79,West,259,1.0,7.0,97,0.00,,,0.83,Wunderground v.1.15,2013-12-15 02:35:00,
2013-12-14 21:36:00,51.9,51.1,29.79,West,259,3.0,7.0,97,0.00,,,0.83,Wunderground v.1.15,2013-12-15 02:36:00,
2013-12-14 21:39:00,51.8,51.0,29.79,West,259,1.0,7.0,97,0.00,,,0.83,Wunderground v.1.15,2013-12-15 02:39:00,
2013-12-14 21:40:00,51.8,51.0,29.79,West,259,3.0,5.0,97,0.00,,,0.83,Wunderground v.1.15,2013-12-15 02:40:00,
2013-12-14 21:41:00,51.8,51.0,29.79,West,259,2.0,5.0,97,0.00,,,0.83,Wunderground v.1.15,2013-12-15 02:41:00,
2013-12-14 21:44:00,51.8,51.0,29.80,West,259,1.0,5.0,97,0.00,,,0.83,Wunderground v.1.15,2013-12-15 02:44:00,
2013-12-14 21:45:00,51.8,51.0,29.80,WNW,300,0.0,5.0,97,0.00,,,0.83,Wunderground v.1.15,2013-12-15 02:45:00,
2013-12-14 21:46:00,51.8,51.0,29.80,WNW,300,2.0,5.0,97,0.00,,,0.83,Wunderground v.1.15,2013-12-15 02:46:00,
2013-12-14 21:49:00,51.6,50.5,29.81,WNW,285,3.0,10.0,96,0.00,,,0.83,Wunderground v.1.15,2013-12-15 02:49:00,
2013-12-14 21:50:00,51.5,50.4,29.81,West,273,2.0,5.0,96,0.00,,,0.83,Wunderground v.1.15,2013-12-15 02:50:00,
2013-12-14 21:51:00,51.5,50.4,29.81,West,273,1.0,5.0,96,0.00,,,0.83,Wunderground v.1.15,2013-12-15 02:51:00,
2013-12-14 21:55:00,51.4,50.3,29.79,West,275,1.0,5.0,96,0.00,,,0.83,Wunderground v.1.15,2013-12-15 02:55:00,
2013-12-14 21:56:00,51.4,50.3,29.79,West,276,4.0,7.0,96,0.00,,,0.83,Wunderground v.1.15,2013-12-15 02:56:00,
2013-12-14 21:57:00,51.3,50.2,29.80,West,260,2.0,7.0,96,0.00,,,0.83,Wunderground v.1.15,2013-12-15 02:57:00,
2013-12-14 22:00:00,51.2,50.1,29.81,West,263,1.0,3.0,96,0.00,,,0.83,Wunderground v.1.15,2013-12-15 03:00:00,
2013-12-14 22:01:00,51.2,50.1,29.81,West,264,1.0,3.0,96,0.00,,,0.83,Wunderground v.1.15,2013-12-15 03:01:00,
2013-12-14 22:02:00,51.2,50.1,29.80,West,263,2.0,4.0,96,0.00,,,0.83,Wunderground v.1.15,2013-12-15 03:02:00,
2013-12-14 22:06:00,51.0,49.9,29.79,West,275,2.0,4.0,96,0.00,,,0.83,Wunderground v.1.15,2013-12-15 03:06:00,
2013-12-14 22:07:00,51.0,49.9,29.78,West,275,2.0,4.0,96,0.00,,,0.83,Wunderground v.1.15,2013-12-15 03:07:00,
2013-12-14 22:09:00,50.9,49.8,29.78,West,275,0.0,4.0,96,0.00,,,0.83,Wunderground v.1.15,2013-12-15 03:09:00,
2013-12-14 22:11:00,50.9,49.8,29.77,West,275,0.0,2.0,96,0.00,,,0.83,Wunderground v.1.15,2013-12-15 03:11:00,
2013-12-14 22:12:00,50.9,49.8,29.77,West,275,0.0,2.0,96,0.00,,,0.83,Wunderground v.1.15,2013-12-15 03:12:00,
2013-12-14 22:15:00,50.8,49.7,29.78,West,275,1.0,3.0,96,0.00,,,0.83,Wunderground v.1.15,2013-12-15 03:15:00,
2013-12-14 22:16:00,50.8,49.7,29.79,West,275,0.0,3.0,96,0.00,,,0.83,Wunderground v.1.15,2013-12-15 03:16:00,
2013-12-14 22:17:00,50.8,49.7,29.79,West,275,0.0,3.0,96,0.00,,,0.83,Wunderground v.1.15,2013-12-15 03:17:00,
2013-12-14 22:18:00,50.7,49.6,29.80,West,275,1.0,3.0,96,0.00,,,0.84,Wunderground v.1.15,2013-12-15 03:18:00,
2013-12-14 22:20:00,50.7,49.6,29.80,West,275,0.0,1.0,96,0.00,,,0.84,Wunderground v.1.15,2013-12-15 03:20:00,
2013-12-14 22:21:00,50.6,49.5,29.80,West,275,3.0,3.0,96,0.00,,,0.84,Wunderground v.1.15,2013-12-15 03:21:00,
2013-12-14 22:22:00,50.6,49.5,29.80,West,275,1.0,3.0,96,0.00,,,0.84,Wunderground v.1.15,2013-12-15 03:22:00,
2013-12-14 22:23:00,50.6,49.5,29.80,West,264,1.0,3.0,96,0.00,,,0.84,Wunderground v.1.15,2013-12-15 03:23:00,
2013-12-14 22:26:00,50.5,49.4,29.80,WSW,240,0.0,5.0,96,0.00,,,0.84,Wunderground v.1.15,2013-12-15 03:26:00,
2013-12-14 22:27:00,50.5,49.4,29.80,WSW,240,2.0,5.0,96,0.00,,,0.84,Wunderground v.1.15,2013-12-15 03:27:00,
2013-12-14 22:28:00,50.5,49.4,29.80,SW,236,2.0,5.0,96,0.00,,,0.84,Wunderground v.1.15,2013-12-15 03:28:00,
2013-12-14 22:32:00,50.5,49.4,29.81,SW,236,1.0,2.0,96,0.00,,,0.84,Wunderground v.1.15,2013-12-15 03:32:00,
2013-12-14 22:33:00,50.5,49.4,29.81,SW,236,0.0,2.0,96,0.00,,,0.84,Wunderground v.1.15,2013-12-15 03:33:00,
2013-12-14 22:37:00,50.4,49.3,29.81,SW,236,3.0,3.0,96,0.00,,,0.84,Wunderground v.1.15,2013-12-15 03:37:00,
2013-12-14 22:38:00,50.4,49.3,29.81,SW,236,1.0,3.0,96,0.00,,,0.84,Wunderground v.1.15,2013-12-15 03:38:00,
2013-12-14 22:39:00,50.4,49.3,29.81,SW,236,2.0,3.0,96,0.00,,,0.84,Wunderground v.1.15,2013-12-15 03:39:00,
2013-12-14 22:42:00,50.3,49.2,29.83,WNW,286,2.0,5.0,96,0.00,,,0.84,Wunderground v.1.15,2013-12-15 03:42:00,
2013-12-14 22:43:00,50.3,49.2,29.83,West,265,3.0,6.0,96,0.00,,,0.84,Wunderground v.1.15,2013-12-15 03:43:00,
2013-12-14 22:44:00,50.3,49.2,29.83,WNW,284,2.0,6.0,96,0.00,,,0.84,Wunderground v.1.15,2013-12-15 03:44:00,
2013-12-14 22:47:00,50.1,49.0,29.83,West,279,2.0,6.0,96,0.00,,,0.84,Wunderground v.1.15,2013-12-15 03:47:00,
2013-12-14 22:48:00,50.1,49.0,29.83,West,279,1.0,6.0,96,0.00,,,0.84,Wunderground v.1.15,2013-12-15 03:48:00,
2013-12-14 22:49:00,50.1,49.0,29.83,WNW,294,3.0,6.0,96,0.00,,,0.84,Wunderground v.1.15,2013-12-15 03:49:00,
2013-12-14 22:50:00,49.9,48.8,29.82,WNW,294,2.0,2.0,96,0.00,,,0.84,Wunderground v.1.15,2013-12-15 03:50:00,
2013-12-14 22:53:00,49.8,48.7,29.82,WSW,246,3.0,4.0,96,0.00,,,0.84,Wunderground v.1.15,2013-12-15 03:53:00,
2013-12-14 22:54:00,49.8,48.7,29.81,WNW,283,5.0,5.0,96,0.00,,,0.84,Wunderground v.1.15,2013-12-15 03:54:00,
2013-12-14 22:55:00,49.7,48.6,29.81,NW,316,5.0,5.0,96,0.00,,,0.84,Wunderground v.1.15,2013-12-15 03:55:00,
2013-12-14 22:56:00,49.6,48.5,29.81,NW,312,2.0,5.0,96,0.00,,,0.84,Wunderground v.1.15,2013-12-15 03:56:00,
2013-12-14 22:58:00,49.4,48.0,29.81,NW,311,2.0,5.0,95,0.00,,,0.84,Wunderground v.1.15,2013-12-15 03:58:00,
2013-12-14 22:59:00,49.4,48.0,29.81,NW,312,0.0,5.0,95,0.00,,,0.84,Wunderground v.1.15,2013-12-15 03:59:00,
2013-12-14 23:01:00,49.3,47.9,29.81,NW,312,0.0,2.0,95,0.00,,,0.84,Wunderground v.1.15,2013-12-15 04:01:00,
2013-12-14 23:03:00,49.2,48.1,29.80,NW,311,0.0,3.0,96,0.00,,,0.84,Wunderground v.1.15,2013-12-15 04:03:00,
2013-12-14 23:04:00,49.2,48.1,29.80,NW,310,3.0,3.0,96,0.00,,,0.84,Wunderground v.1.15,2013-12-15 04:04:00,
2013-12-14 23:05:00,49.2,48.1,29.80,WSW,246,5.0,6.0,96,0.00,,,0.84,Wunderground v.1.15,2013-12-15 04:05:00,
2013-12-14 23:06:00,49.0,47.6,29.80,WNW,301,2.0,6.0,95,0.00,,,0.84,Wunderground v.1.15,2013-12-15 04:06:00,
2013-12-14 23:08:00,48.8,47.4,29.81,West,277,2.0,6.0,95,0.00,,,0.84,Wunderground v.1.15,2013-12-15 04:08:00,
2013-12-14 23:10:00,48.6,47.2,29.82,WSW,237,4.0,4.0,95,0.00,,,0.84,Wunderground v.1.15,2013-12-15 04:10:00,
2013-12-14 23:11:00,48.5,47.1,29.82,NNW,346,5.0,5.0,95,0.00,,,0.84,Wunderground v.1.15,2013-12-15 04:11:00,
2013-12-14 23:12:00,48.4,47.0,29.82,NNE,28,3.0,7.0,95,0.00,,,0.84,Wunderground v.1.15,2013-12-15 04:12:00,
2013-12-14 23:13:00,48.3,46.9,29.82,West,274,1.0,7.0,95,0.00,,,0.84,Wunderground v.1.15,2013-12-15 04:13:00,
2013-12-14 23:14:00,48.3,46.9,29.82,West,273,0.0,7.0,95,0.00,,,0.84,Wunderground v.1.15,2013-12-15 04:14:00,
2013-12-14 23:15:00,48.3,46.9,29.82,West,274,4.0,7.0,95,0.00,,,0.84,Wunderground v.1.15,2013-12-15 04:15:00,
2013-12-14 23:16:00,48.2,46.8,29.82,West,274,5.0,7.0,95,0.00,,,0.84,Wunderground v.1.15,2013-12-15 04:16:00,
2013-12-14 23:17:00,48.1,46.7,29.82,NNW,329,7.0,7.0,95,0.00,,,0.84,Wunderground v.1.15,2013-12-15 04:17:00,
2013-12-14 23:18:00,48.0,46.6,29.81,NNW,333,9.0,9.0,95,0.00,,,0.84,Wunderground v.1.15,2013-12-15 04:18:00,
2013-12-14 23:19:00,48.0,46.6,29.81,WNW,293,6.0,9.0,95,0.00,,,0.84,Wunderground v.1.15,2013-12-15 04:19:00,
2013-12-14 23:20:00,47.9,46.3,29.81,WNW,288,2.0,4.0,94,0.00,,,0.84,Wunderground v.1.15,2013-12-15 04:20:00,
2013-12-14 23:21:00,47.9,46.3,29.81,WNW,288,2.0,4.0,94,0.00,,,0.84,Wunderground v.1.15,2013-12-15 04:21:00,
2013-12-14 23:23:00,47.8,46.2,29.81,WNW,287,2.0,4.0,94,0.00,,,0.84,Wunderground v.1.15,2013-12-15 04:23:00,
2013-12-14 23:24:00,47.7,46.1,29.81,West,268,3.0,5.0,94,0.00,,,0.84,Wunderground v.1.15,2013-12-15 04:24:00,
2013-12-14 23:26:00,47.6,46.0,29.81,West,268,2.0,5.0,94,0.00,,,0.84,Wunderground v.1.15,2013-12-15 04:26:00,
2013-12-14 23:27:00,47.5,45.9,29.82,West,273,3.0,5.0,94,0.00,,,0.84,Wunderground v.1.15,2013-12-15 04:27:00,
2013-12-14 23:28:00,47.4,45.8,29.82,West,276,3.0,5.0,94,0.00,,,0.84,Wunderground v.1.15,2013-12-15 04:28:00,
2013-12-14 23:29:00,47.4,45.8,29.82,West,277,4.0,5.0,94,0.00,,,0.84,Wunderground v.1.15,2013-12-15 04:29:00,
2013-12-14 23:30:00,47.3,45.7,29.82,West,277,2.0,3.0,94,0.00,,,0.84,Wunderground v.1.15,2013-12-15 04:30:00,
2013-12-14 23:31:00,47.3,45.7,29.82,West,277,1.0,3.0,94,0.00,,,0.84,Wunderground v.1.15,2013-12-15 04:31:00,
2013-12-14 23:32:00,47.2,45.6,29.83,West,277,3.0,4.0,94,0.00,,,0.84,Wunderground v.1.15,2013-12-15 04:32:00,
2013-12-14 23:33:00,47.2,45.6,29.83,WNW,298,3.0,4.0,94,0.00,,,0.84,Wunderground v.1.15,2013-12-15 04:33:00,
2013-12-14 23:34:00,47.1,45.5,29.84,NW,313,4.0,4.0,94,0.00,,,0.84,Wunderground v.1.15,2013-12-15 04:34:00,
2013-12-14 23:36:00,47.0,45.4,29.84,WNW,303,4.0,6.0,94,0.00,,,0.84,Wunderground v.1.15,2013-12-15 04:36:00,
2013-12-14 23:37:00,46.9,45.3,29.84,NW,314,1.0,9.0,94,0.00,,,0.84,Wunderground v.1.15,2013-12-15 04:37:00,
2013-12-14 23:38:00,46.9,45.3,29.84,NW,314,1.0,9.0,94,0.00,,,0.84,Wunderground v.1.15,2013-12-15 04:38:00,
2013-12-14 23:40:00,46.8,45.2,29.83,West,265,4.0,5.0,94,0.00,,,0.84,Wunderground v.1.15,2013-12-15 04:40:00,
2013-12-14 23:41:00,46.8,45.2,29.83,West,275,3.0,7.0,94,0.00,,,0.84,Wunderground v.1.15,2013-12-15 04:41:00,
2013-12-14 23:43:00,46.7,44.8,29.83,WNW,291,5.0,7.0,93,0.00,,,0.84,Wunderground v.1.15,2013-12-15 04:43:00,
2013-12-14 23:44:00,46.7,44.8,29.83,WSW,254,4.0,7.0,93,0.00,,,0.84,Wunderground v.1.15,2013-12-15 04:44:00,
2013-12-14 23:45:00,46.7,44.8,29.84,WNW,284,4.0,7.0,93,0.00,,,0.84,Wunderground v.1.15,2013-12-15 04:45:00,
2013-12-14 23:46:00,46.6,44.7,29.84,WNW,298,2.0,7.0,93,0.00,,,0.84,Wunderground v.1.15,2013-12-15 04:46:00,
2013-12-14 23:48:00,46.5,44.6,29.84,West,271,4.0,7.0,93,0.00,,,0.84,Wunderground v.1.15,2013-12-15 04:48:00,
2013-12-14 23:49:00,46.5,44.6,29.84,NW,314,5.0,7.0,93,0.00,,,0.84,Wunderground v.1.15,2013-12-15 04:49:00,
2013-12-14 23:50:00,46.5,44.6,29.84,WNW,292,3.0,5.0,93,0.00,,,0.84,Wunderground v.1.15,2013-12-15 04:50:00,
2013-12-14 23:51:00,46.4,44.8,29.83,NNW,327,4.0,5.0,94,0.00,,,0.84,Wunderground v.1.15,2013-12-15 04:51:00,
2013-12-14 23:53:00,46.1,44.2,29.83,SW,217,7.0,14.0,93,0.00,,,0.84,Wunderground v.1.15,2013-12-15 04:53:00,
2013-12-14 23:55:00,45.8,43.6,29.84,WSW,242,4.0,14.0,92,0.00,,,0.84,Wunderground v.1.15,2013-12-15 04:55:00,
2013-12-14 23:56:00,45.8,43.6,29.84,West,275,5.0,14.0,92,0.00,,,0.84,Wunderground v.1.15,2013-12-15 04:56:00,
2013-12-14 23:57:00,45.6,43.4,29.84,West,274,2.0,14.0,92,0.00,,,0.84,Wunderground v.1.15,2013-12-15 04:57:00,
2013-12-14 23:58:00,45.5,43.3,29.85,West,274,3.0,14.0,92,0.00,,,0.84,Wunderground v.1.15,2013-12-15 04:58:00,